Observation data for Vigo Park on 08/21/2019      Previous  Date  Next       Current Mesonet Observations  Soil Data  Daily Summary Page  Observations in Plain Language
KVP1 210500Z 16010KT 27/14 A301 RMK A01 T02710139  RH  044%=      5-min Rain = 0
KVP1 210501Z 16009KT 27/14 A301 RMK A01 T02710139  RH  044%=      5-min Rain = 0
KVP1 210502Z 16010KT 27/14 A301 RMK A01 T02710139  RH  044%=      5-min Rain = 0
KVP1 210503Z 16011KT 27/14 A301 RMK A01 T02710140  RH  044%=      5-min Rain = 0
KVP1 210504Z 16010KT 27/14 A301 RMK A01 T02710139  RH  044%=      5-min Rain = 0
KVP1 210505Z 16011KT 27/14 A301 RMK A01 T02710140  RH  044%=      5-min Rain = 0
KVP1 210506Z 16011KT 27/14 A301 RMK A01 T02710140  RH  044%=      5-min Rain = 0
KVP1 210507Z 16010KT 27/14 A301 RMK A01 T02710140  RH  044%=      5-min Rain = 0
KVP1 210508Z 16011KT 27/14 A301 RMK A01 T02710140  RH  044%=      5-min Rain = 0
KVP1 210509Z 16010KT 27/14 A301 RMK A01 T02720140  RH  044%=      5-min Rain = 0
KVP1 210510Z 16011KT 27/14 A301 RMK A01 T02720140  RH  044%=      5-min Rain = 0
KVP1 210511Z 16011KT 27/14 A301 RMK A01 T02720140  RH  044%=      5-min Rain = 0
KVP1 210512Z 16011KT 27/14 A301 RMK A01 T02720141  RH  044%=      5-min Rain = 0
KVP1 210513Z 16011KT 27/14 A301 RMK A01 T02720141  RH  044%=      5-min Rain = 0
KVP1 210514Z 16010KT 27/14 A301 RMK A01 T02730141  RH  044%=      5-min Rain = 0
KVP1 210515Z 16012KT 27/14 A301 RMK A01 T02730141  RH  044%=      5-min Rain = 0
KVP1 210516Z 16011KT 27/14 A301 RMK A01 T02730141  RH  044%=      5-min Rain = 0
KVP1 210517Z 16010KT 27/14 A301 RMK A01 T02740141  RH  044%=      5-min Rain = 0
KVP1 210518Z 16010KT 27/14 A301 RMK A01 T02740141  RH  044%=      5-min Rain = 0
KVP1 210519Z 16012KT 27/14 A301 RMK A01 T02740141  RH  044%=      5-min Rain = 0
KVP1 210520Z 16011KT 27/14 A301 RMK A01 T02740141  RH  044%=      5-min Rain = 0
KVP1 210521Z 16009KT 27/14 A301 RMK A01 T02740141  RH  044%=      5-min Rain = 0
KVP1 210522Z 16011KT 27/14 A301 RMK A01 T02730141  RH  044%=      5-min Rain = 0
KVP1 210523Z 16011KT 27/14 A301 RMK A01 T02730141  RH  044%=      5-min Rain = 0
KVP1 210524Z 16010KT 27/14 A301 RMK A01 T02720141  RH  044%=      5-min Rain = 0
KVP1 210525Z 16010KT 27/14 A301 RMK A01 T02720141  RH  045%=      5-min Rain = 0
KVP1 210526Z 16012KT 27/14 A301 RMK A01 T02720142  RH  045%=      5-min Rain = 0
KVP1 210527Z 16011KT 27/14 A301 RMK A01 T02720141  RH  045%=      5-min Rain = 0
KVP1 210528Z 16011KT 27/14 A301 RMK A01 T02720141  RH  045%=      5-min Rain = 0
KVP1 210529Z 16011KT 27/14 A301 RMK A01 T02720141  RH  045%=      5-min Rain = 0
KVP1 210530Z 16011KT 27/14 A301 RMK A01 T02710141  RH  045%=      5-min Rain = 0
KVP1 210531Z 16010KT 27/14 A301 RMK A01 T02710141  RH  045%=      5-min Rain = 0
KVP1 210532Z 16011KT 27/14 A301 RMK A01 T02710141  RH  045%=      5-min Rain = 0
KVP1 210533Z 16010KT 27/14 A301 RMK A01 T02710141  RH  045%=      5-min Rain = 0
KVP1 210534Z 16010KT 27/14 A301 RMK A01 T02710141  RH  045%=      5-min Rain = 0
KVP1 210535Z 16010KT 27/14 A301 RMK A01 T02710142  RH  045%=      5-min Rain = 0
KVP1 210536Z 16010KT 27/14 A301 RMK A01 T02710142  RH  045%=      5-min Rain = 0
KVP1 210537Z 16011KT 27/14 A301 RMK A01 T02710142  RH  045%=      5-min Rain = 0
KVP1 210538Z 16011KT 27/14 A301 RMK A01 T02710142  RH  045%=      5-min Rain = 0
KVP1 210539Z 17011KT 27/14 A301 RMK A01 T02710142  RH  045%=      5-min Rain = 0
KVP1 210540Z 16010KT 27/14 A301 RMK A01 T02720142  RH  045%=      5-min Rain = 0
KVP1 210541Z 17010KT 27/14 A301 RMK A01 T02720143  RH  045%=      5-min Rain = 0
KVP1 210542Z 16010KT 27/14 A301 RMK A01 T02720143  RH  045%=      5-min Rain = 0
KVP1 210543Z 17011KT 27/14 A301 RMK A01 T02710143  RH  045%=      5-min Rain = 0
KVP1 210544Z 17010KT 27/14 A301 RMK A01 T02710143  RH  045%=      5-min Rain = 0
KVP1 210545Z 17011KT 27/14 A301 RMK A01 T02710143  RH  045%=      5-min Rain = 0
KVP1 210546Z 16012KT 27/14 A301 RMK A01 T02710143  RH  045%=      5-min Rain = 0
KVP1 210547Z 17011KT 27/14 A301 RMK A01 T02720143  RH  045%=      5-min Rain = 0
KVP1 210548Z 17010KT 27/14 A301 RMK A01 T02720143  RH  045%=      5-min Rain = 0
KVP1 210549Z 16011KT 27/14 A301 RMK A01 T02720143  RH  045%=      5-min Rain = 0
KVP1 210550Z 16010KT 27/14 A301 RMK A01 T02720144  RH  045%=      5-min Rain = 0
KVP1 210551Z 17009KT 27/14 A301 RMK A01 T02720144  RH  045%=      5-min Rain = 0
KVP1 210552Z 17010KT 27/14 A301 RMK A01 T02710144  RH  046%=      5-min Rain = 0
KVP1 210553Z 17011KT 27/14 A301 RMK A01 T02710144  RH  046%=      5-min Rain = 0
KVP1 210554Z 17009KT 27/14 A301 RMK A01 T02720144  RH  046%=      5-min Rain = 0
KVP1 210555Z 17010KT 27/14 A3011 RMK A01 T02720144  RH  046%=      5-min Rain = 0
KVP1 210556Z 17010KT 27/15 A3011 RMK A01 T02710145  RH  046%=      5-min Rain = 0
KVP1 210557Z 17009KT 27/15 A3011 RMK A01 T02710145  RH  046%=      5-min Rain = 0
KVP1 210558Z 17010KT 27/15 A3011 RMK A01 T02710145  RH  046%=      5-min Rain = 0
KVP1 210559Z 17009KT 27/15 A3011 RMK A01 T02710145  RH  046%=      5-min Rain = 0
KVP1 210600Z 17009KT 27/15 A3011 RMK A01 T02710145  RH  046%=      5-min Rain = 0
KVP1 210601Z 17010KT 27/15 A3011 RMK A01 T02710145  RH  046%=      5-min Rain = 0
KVP1 210602Z 17010KT 27/15 A3011 RMK A01 T02710145  RH  046%=      5-min Rain = 0
KVP1 210603Z 17009KT 27/15 A3011 RMK A01 T02710145  RH  046%=      5-min Rain = 0
KVP1 210604Z 17009KT 27/15 A3011 RMK A01 T02710145  RH  046%=      5-min Rain = 0
KVP1 210605Z 17010KT 27/15 A3011 RMK A01 T02710145  RH  046%=      5-min Rain = 0
KVP1 210606Z 17010KT 27/15 A3011 RMK A01 T02710145  RH  046%=      5-min Rain = 0
KVP1 210607Z 17009KT 27/15 A3011 RMK A01 T02710146  RH  046%=      5-min Rain = 0
KVP1 210608Z 17009KT 27/15 A3011 RMK A01 T02710146  RH  046%=      5-min Rain = 0
KVP1 210609Z 17010KT 27/15 A3011 RMK A01 T02700145  RH  046%=      5-min Rain = 0
KVP1 210610Z 17010KT 27/15 A3011 RMK A01 T02700145  RH  046%=      5-min Rain = 0
KVP1 210611Z 17011KT 27/15 A3011 RMK A01 T02700145  RH  046%=      5-min Rain = 0
KVP1 210612Z 17010KT 27/15 A3011 RMK A01 T02710145  RH  046%=      5-min Rain = 0
KVP1 210613Z 16010KT 27/15 A3011 RMK A01 T02710145  RH  046%=      5-min Rain = 0
KVP1 210614Z 16010KT 27/15 A3011 RMK A01 T02710145  RH  046%=      5-min Rain = 0
KVP1 210615Z 17009KT 27/15 A3011 RMK A01 T02710146  RH  046%=      5-min Rain = 0
KVP1 210616Z 16009KT 27/15 A3011 RMK A01 T02700146  RH  046%=      5-min Rain = 0
KVP1 210617Z 16010KT 27/15 A3011 RMK A01 T02700145  RH  046%=      5-min Rain = 0
KVP1 210618Z 17010KT 27/15 A3011 RMK A01 T02700146  RH  047%=      5-min Rain = 0
KVP1 210619Z 16009KT 27/15 A3011 RMK A01 T02700146  RH  047%=      5-min Rain = 0
KVP1 210620Z 17009KT 27/15 A3011 RMK A01 T02690146  RH  047%=      5-min Rain = 0
KVP1 210621Z 17010KT 27/15 A301 RMK A01 T02680146  RH  047%=      5-min Rain = 0
KVP1 210622Z 17009KT 27/15 A301 RMK A01 T02680146  RH  047%=      5-min Rain = 0
KVP1 210623Z 17010KT 27/15 A301 RMK A01 T02680146  RH  047%=      5-min Rain = 0
KVP1 210624Z 16009KT 27/15 A301 RMK A01 T02680146  RH  047%=      5-min Rain = 0
KVP1 210625Z 17010KT 27/15 A301 RMK A01 T02680146  RH  047%=      5-min Rain = 0
KVP1 210626Z 16009KT 27/15 A301 RMK A01 T02680146  RH  047%=      5-min Rain = 0
KVP1 210627Z 16010KT 27/15 A301 RMK A01 T02680146  RH  047%=      5-min Rain = 0
KVP1 210628Z 17010KT 27/15 A301 RMK A01 T02680146  RH  047%=      5-min Rain = 0
KVP1 210629Z 17010KT 27/15 A301 RMK A01 T02670146  RH  047%=      5-min Rain = 0
KVP1 210630Z 17010KT 27/15 A3011 RMK A01 T02670146  RH  047%=      5-min Rain = 0
KVP1 210631Z 17010KT 27/15 A3011 RMK A01 T02680146  RH  047%=      5-min Rain = 0
KVP1 210632Z 17009KT 27/15 A3011 RMK A01 T02680146  RH  047%=      5-min Rain = 0
KVP1 210633Z 17010KT 27/15 A301 RMK A01 T02670146  RH  047%=      5-min Rain = 0
KVP1 210634Z 17011KT 27/15 A301 RMK A01 T02670146  RH  047%=      5-min Rain = 0
KVP1 210635Z 17010KT 27/15 A301 RMK A01 T02670146  RH  047%=      5-min Rain = 0
KVP1 210636Z 17010KT 27/15 A301 RMK A01 T02680146  RH  047%=      5-min Rain = 0
KVP1 210637Z 17010KT 27/15 A301 RMK A01 T02680146  RH  047%=      5-min Rain = 0
KVP1 210638Z 17010KT 27/15 A301 RMK A01 T02670146  RH  047%=      5-min Rain = 0
KVP1 210639Z 17009KT 27/15 A301 RMK A01 T02660146  RH  048%=      5-min Rain = 0
KVP1 210640Z 17009KT 27/15 A301 RMK A01 T02660146  RH  048%=      5-min Rain = 0
KVP1 210641Z 17009KT 27/15 A301 RMK A01 T02660147  RH  048%=      5-min Rain = 0
KVP1 210642Z 17009KT 27/15 A301 RMK A01 T02650146  RH  048%=      5-min Rain = 0
KVP1 210643Z 17010KT 27/15 A301 RMK A01 T02650146  RH  048%=      5-min Rain = 0
KVP1 210644Z 17008KT 27/15 A301 RMK A01 T02650146  RH  048%=      5-min Rain = 0
KVP1 210645Z 17008KT 26/15 A301 RMK A01 T02640146  RH  048%=      5-min Rain = 0
KVP1 210646Z 17008KT 26/15 A301 RMK A01 T02640146  RH  048%=      5-min Rain = 0
KVP1 210647Z 17008KT 26/15 A301 RMK A01 T02630146  RH  049%=      5-min Rain = 0
KVP1 210648Z 17009KT 26/15 A301 RMK A01 T02630147  RH  049%=      5-min Rain = 0
KVP1 210649Z 17008KT 26/15 A301 RMK A01 T02620146  RH  049%=      5-min Rain = 0
KVP1 210650Z 17008KT 26/15 A301 RMK A01 T02630146  RH  049%=      5-min Rain = 0
KVP1 210651Z 17008KT 26/15 A301 RMK A01 T02620147  RH  049%=      5-min Rain = 0
KVP1 210652Z 17008KT 26/15 A301 RMK A01 T02620146  RH  049%=      5-min Rain = 0
KVP1 210653Z 17008KT 26/15 A301 RMK A01 T02610146  RH  049%=      5-min Rain = 0
KVP1 210654Z 17009KT 26/15 A301 RMK A01 T02620147  RH  049%=      5-min Rain = 0
KVP1 210655Z 17009KT 26/15 A301 RMK A01 T02610147  RH  049%=      5-min Rain = 0
KVP1 210656Z 17009KT 26/15 A301 RMK A01 T02610147  RH  049%=      5-min Rain = 0
KVP1 210657Z 17009KT 26/15 A301 RMK A01 T02610147  RH  049%=      5-min Rain = 0
KVP1 210658Z 17009KT 26/15 A301 RMK A01 T02610148  RH  050%=      5-min Rain = 0
KVP1 210659Z 17008KT 26/15 A301 RMK A01 T02610148  RH  050%=      5-min Rain = 0
KVP1 210700Z 17008KT 26/15 A301 RMK A01 T02610148  RH  050%=      5-min Rain = 0
KVP1 210701Z 17009KT 26/15 A301 RMK A01 T02610148  RH  050%=      5-min Rain = 0
KVP1 210702Z 17009KT 26/15 A301 RMK A01 T02610148  RH  050%=      5-min Rain = 0
KVP1 210703Z 17008KT 26/15 A301 RMK A01 T02610148  RH  050%=      5-min Rain = 0
KVP1 210704Z 17008KT 26/15 A301 RMK A01 T02610148  RH  050%=      5-min Rain = 0
KVP1 210705Z 17008KT 26/15 A301 RMK A01 T02610148  RH  050%=      5-min Rain = 0
KVP1 210706Z 17009KT 26/15 A301 RMK A01 T02610149  RH  050%=      5-min Rain = 0
KVP1 210707Z 17008KT 26/15 A301 RMK A01 T02600149  RH  050%=      5-min Rain = 0
KVP1 210708Z 18008KT 26/15 A301 RMK A01 T02600149  RH  050%=      5-min Rain = 0
KVP1 210709Z 17008KT 26/15 A301 RMK A01 T02600149  RH  050%=      5-min Rain = 0
KVP1 210710Z 18008KT 26/15 A301 RMK A01 T02600149  RH  050%=      5-min Rain = 0
KVP1 210711Z 18008KT 26/15 A301 RMK A01 T02600149  RH  050%=      5-min Rain = 0
KVP1 210712Z 17007KT 26/15 A301 RMK A01 T02590149  RH  050%=      5-min Rain = 0
KVP1 210713Z 17007KT 26/15 A301 RMK A01 T02590149  RH  051%=      5-min Rain = 0
KVP1 210714Z 17007KT 26/15 A3011 RMK A01 T02590149  RH  051%=      5-min Rain = 0
KVP1 210715Z 17007KT 26/15 A3011 RMK A01 T02580149  RH  051%=      5-min Rain = 0
KVP1 210716Z 17007KT 26/15 A3011 RMK A01 T02570149  RH  051%=      5-min Rain = 0
KVP1 210717Z 17007KT 26/15 A3011 RMK A01 T02570149  RH  051%=      5-min Rain = 0
KVP1 210718Z 17006KT 26/15 A3011 RMK A01 T02560149  RH  052%=      5-min Rain = 0
KVP1 210719Z 17007KT 26/15 A3011 RMK A01 T02560149  RH  052%=      5-min Rain = 0
KVP1 210720Z 17006KT 26/15 A3011 RMK A01 T02550149  RH  052%=      5-min Rain = 0
KVP1 210721Z 17006KT 26/15 A3011 RMK A01 T02550149  RH  052%=      5-min Rain = 0
KVP1 210722Z 17006KT 25/15 A3011 RMK A01 T02540149  RH  052%=      5-min Rain = 0
KVP1 210723Z 17006KT 25/15 A3011 RMK A01 T02530149  RH  052%=      5-min Rain = 0
KVP1 210724Z 18005KT 25/15 A3011 RMK A01 T02530149  RH  053%=      5-min Rain = 0
KVP1 210725Z 18005KT 25/15 A3011 RMK A01 T02520149  RH  053%=      5-min Rain = 0
KVP1 210726Z 18005KT 25/15 A3011 RMK A01 T02510149  RH  053%=      5-min Rain = 0
KVP1 210727Z 18005KT 25/15 A3011 RMK A01 T02510148  RH  053%=      5-min Rain = 0
KVP1 210728Z 18005KT 25/15 A3011 RMK A01 T02500148  RH  053%=      5-min Rain = 0
KVP1 210729Z 18005KT 25/15 A3011 RMK A01 T02500148  RH  053%=      5-min Rain = 0
KVP1 210730Z 18005KT 25/15 A3011 RMK A01 T02490147  RH  053%=      5-min Rain = 0
KVP1 210731Z 19005KT 25/15 A3011 RMK A01 T02490148  RH  053%=      5-min Rain = 0
KVP1 210732Z 19004KT 25/15 A3011 RMK A01 T02480147  RH  054%=      5-min Rain = 0
KVP1 210733Z 19004KT 25/15 A3011 RMK A01 T02470147  RH  054%=      5-min Rain = 0
KVP1 210734Z 20005KT 25/15 A3011 RMK A01 T02460148  RH  054%=      5-min Rain = 0
KVP1 210735Z 20005KT 25/15 A3011 RMK A01 T02450148  RH  055%=      5-min Rain = 0
KVP1 210736Z 20004KT 24/15 A3011 RMK A01 T02440148  RH  055%=      5-min Rain = 0
KVP1 210737Z 20004KT 24/15 A3011 RMK A01 T02420149  RH  056%=      5-min Rain = 0
KVP1 210738Z 20004KT 24/15 A3011 RMK A01 T02410148  RH  056%=      5-min Rain = 0
KVP1 210739Z 20004KT 24/15 A3011 RMK A01 T02390148  RH  056%=      5-min Rain = 0
KVP1 210740Z 20004KT 24/15 A3011 RMK A01 T02390147  RH  057%=      5-min Rain = 0
KVP1 210741Z 20005KT 24/15 A3011 RMK A01 T02380147  RH  057%=      5-min Rain = 0
KVP1 210742Z 20005KT 24/15 A3011 RMK A01 T02370147  RH  057%=      5-min Rain = 0
KVP1 210743Z 20005KT 24/15 A3011 RMK A01 T02360147  RH  057%=      5-min Rain = 0
KVP1 210744Z 20005KT 24/15 A3011 RMK A01 T02350146  RH  057%=      5-min Rain = 0
KVP1 210745Z 20005KT 23/15 A3011 RMK A01 T02340146  RH  058%=      5-min Rain = 0
KVP1 210746Z 20005KT 23/15 A3011 RMK A01 T02340146  RH  058%=      5-min Rain = 0
KVP1 210747Z 20006KT 23/15 A3011 RMK A01 T02330146  RH  058%=      5-min Rain = 0
KVP1 210748Z 20006KT 23/15 A3011 RMK A01 T02330147  RH  058%=      5-min Rain = 0
KVP1 210749Z 19006KT 23/15 A3011 RMK A01 T02330146  RH  058%=      5-min Rain = 0
KVP1 210750Z 20006KT 23/15 A3011 RMK A01 T02330147  RH  058%=      5-min Rain = 0
KVP1 210751Z 20006KT 23/15 A3011 RMK A01 T02320147  RH  058%=      5-min Rain = 0
KVP1 210752Z 20006KT 23/15 A3011 RMK A01 T02320147  RH  059%=      5-min Rain = 0
KVP1 210753Z 20006KT 23/15 A3011 RMK A01 T02320147  RH  059%=      5-min Rain = 0
KVP1 210754Z 20007KT 23/15 A3011 RMK A01 T02320147  RH  059%=      5-min Rain = 0
KVP1 210755Z 20007KT 23/15 A3011 RMK A01 T02310147  RH  059%=      5-min Rain = 0
KVP1 210756Z 20007KT 23/15 A3011 RMK A01 T02310147  RH  059%=      5-min Rain = 0
KVP1 210757Z 20007KT 23/15 A301 RMK A01 T02310147  RH  059%=      5-min Rain = 0
KVP1 210758Z 20007KT 23/15 A301 RMK A01 T02310147  RH  059%=      5-min Rain = 0
KVP1 210759Z 20007KT 23/15 A301 RMK A01 T02310147  RH  059%=      5-min Rain = 0
KVP1 210800Z 19007KT 23/15 A301 RMK A01 T02310147  RH  059%=      5-min Rain = 0
KVP1 210801Z 19007KT 23/15 A301 RMK A01 T02300147  RH  059%=      5-min Rain = 0
KVP1 210802Z 19007KT 23/15 A301 RMK A01 T02300147  RH  059%=      5-min Rain = 0
KVP1 210803Z 19007KT 23/15 A301 RMK A01 T02310148  RH  059%=      5-min Rain = 0
KVP1 210804Z 19007KT 23/15 A301 RMK A01 T02310148  RH  060%=      5-min Rain = 0
KVP1 210805Z 19007KT 23/15 A301 RMK A01 T02310148  RH  060%=      5-min Rain = 0
KVP1 210806Z 19007KT 23/15 A301 RMK A01 T02300148  RH  060%=      5-min Rain = 0
KVP1 210807Z 19006KT 23/15 A301 RMK A01 T02300148  RH  060%=      5-min Rain = 0
KVP1 210808Z 19006KT 23/15 A301 RMK A01 T02310149  RH  060%=      5-min Rain = 0
KVP1 210809Z 20006KT 23/15 A301 RMK A01 T02300149  RH  060%=      5-min Rain = 0
KVP1 210810Z 20006KT 23/15 A301 RMK A01 T02300149  RH  060%=      5-min Rain = 0
KVP1 210811Z 20006KT 23/15 A301 RMK A01 T02300149  RH  060%=      5-min Rain = 0
KVP1 210812Z 20006KT 23/15 A301 RMK A01 T02300149  RH  060%=      5-min Rain = 0
KVP1 210813Z 20006KT 23/15 A301 RMK A01 T02300149  RH  060%=      5-min Rain = 0
KVP1 210814Z 20006KT 23/15 A301 RMK A01 T02290149  RH  060%=      5-min Rain = 0
KVP1 210815Z 21006KT 23/15 A301 RMK A01 T02290148  RH  060%=      5-min Rain = 0
KVP1 210816Z 21007KT 23/15 A301 RMK A01 T02290148  RH  060%=      5-min Rain = 0
KVP1 210817Z 21007KT 23/15 A301 RMK A01 T02280148  RH  061%=      5-min Rain = 0
KVP1 210818Z 21007KT 23/15 A301 RMK A01 T02280148  RH  061%=      5-min Rain = 0
KVP1 210819Z 21007KT 23/15 A301 RMK A01 T02280147  RH  060%=      5-min Rain = 0
KVP1 210820Z 21007KT 23/15 A301 RMK A01 T02280147  RH  060%=      5-min Rain = 0
KVP1 210821Z 21007KT 23/15 A301 RMK A01 T02280147  RH  060%=      5-min Rain = 0
KVP1 210822Z 21007KT 23/15 A301 RMK A01 T02280148  RH  061%=      5-min Rain = 0
KVP1 210823Z 20007KT 23/15 A301 RMK A01 T02280148  RH  061%=      5-min Rain = 0
KVP1 210824Z 20007KT 23/15 A301 RMK A01 T02280147  RH  060%=      5-min Rain = 0
KVP1 210825Z 20007KT 23/15 A301 RMK A01 T02280147  RH  060%=      5-min Rain = 0
KVP1 210826Z 20007KT 23/15 A301 RMK A01 T02300147  RH  060%=      5-min Rain = 0
KVP1 210827Z 20007KT 23/15 A301 RMK A01 T02310148  RH  059%=      5-min Rain = 0
KVP1 210828Z 20006KT 23/15 A301 RMK A01 T02320148  RH  059%=      5-min Rain = 0
KVP1 210829Z 20006KT 23/15 A301 RMK A01 T02330148  RH  059%=      5-min Rain = 0
KVP1 210830Z 20006KT 23/15 A301 RMK A01 T02330148  RH  059%=      5-min Rain = 0
KVP1 210831Z 20006KT 23/15 A301 RMK A01 T02330148  RH  059%=      5-min Rain = 0
KVP1 210832Z 19006KT 23/15 A301 RMK A01 T02340148  RH  059%=      5-min Rain = 0
KVP1 210833Z 20005KT 23/15 A301 RMK A01 T02340148  RH  059%=      5-min Rain = 0
KVP1 210834Z 20005KT 23/15 A301 RMK A01 T02340148  RH  059%=      5-min Rain = 0
KVP1 210835Z 20005KT 23/15 A301 RMK A01 T02340148  RH  059%=      5-min Rain = 0
KVP1 210836Z 20005KT 23/15 A301 RMK A01 T02330148  RH  059%=      5-min Rain = 0
KVP1 210837Z 20004KT 23/15 A301 RMK A01 T02330148  RH  059%=      5-min Rain = 0
KVP1 210838Z 20004KT 23/15 A301 RMK A01 T02330148  RH  059%=      5-min Rain = 0
KVP1 210839Z 20004KT 23/15 A301 RMK A01 T02330148  RH  059%=      5-min Rain = 0
KVP1 210840Z 20004KT 23/15 A301 RMK A01 T02320148  RH  059%=      5-min Rain = 0
KVP1 210841Z 20004KT 23/15 A301 RMK A01 T02320147  RH  059%=      5-min Rain = 0
KVP1 210842Z 20004KT 23/15 A301 RMK A01 T02320147  RH  059%=      5-min Rain = 0
KVP1 210843Z 20005KT 23/15 A301 RMK A01 T02320147  RH  059%=      5-min Rain = 0
KVP1 210844Z 20005KT 23/15 A301 RMK A01 T02320147  RH  059%=      5-min Rain = 0
KVP1 210845Z 20004KT 23/15 A301 RMK A01 T02310147  RH  059%=      5-min Rain = 0
KVP1 210846Z 20005KT 23/15 A301 RMK A01 T02310147  RH  059%=      5-min Rain = 0
KVP1 210847Z 20005KT 23/15 A301 RMK A01 T02310147  RH  059%=      5-min Rain = 0
KVP1 210848Z 20005KT 23/15 A301 RMK A01 T02320147  RH  059%=      5-min Rain = 0
KVP1 210849Z 20005KT 23/15 A301 RMK A01 T02310147  RH  059%=      5-min Rain = 0
KVP1 210850Z 20005KT 23/15 A301 RMK A01 T02310147  RH  059%=      5-min Rain = 0
KVP1 210851Z 20005KT 23/15 A301 RMK A01 T02310148  RH  059%=      5-min Rain = 0
KVP1 210852Z 20005KT 23/15 A301 RMK A01 T02300148  RH  060%=      5-min Rain = 0
KVP1 210853Z 20006KT 23/15 A301 RMK A01 T02290148  RH  060%=      5-min Rain = 0
KVP1 210854Z 20005KT 23/15 A301 RMK A01 T02290148  RH  060%=      5-min Rain = 0
KVP1 210855Z 21005KT 23/15 A301 RMK A01 T02280148  RH  060%=      5-min Rain = 0
KVP1 210856Z 21005KT 23/15 A301 RMK A01 T02270148  RH  061%=      5-min Rain = 0
KVP1 210857Z 21005KT 23/15 A301 RMK A01 T02260148  RH  061%=      5-min Rain = 0
KVP1 210858Z 20005KT 23/15 A301 RMK A01 T02250148  RH  062%=      5-min Rain = 0
KVP1 210859Z 20006KT 22/15 A301 RMK A01 T02240148  RH  062%=      5-min Rain = 0
KVP1 210900Z 19005KT 22/15 A301 RMK A01 T02240148  RH  062%=      5-min Rain = 0
KVP1 210901Z 19006KT 22/15 A301 RMK A01 T02240148  RH  062%=      5-min Rain = 0
KVP1 210902Z 19006KT 22/15 A301 RMK A01 T02240148  RH  062%=      5-min Rain = 0
KVP1 210903Z 19006KT 22/15 A301 RMK A01 T02230148  RH  062%=      5-min Rain = 0
KVP1 210904Z 19006KT 22/15 A301 RMK A01 T02240148  RH  062%=      5-min Rain = 0
KVP1 210905Z 19006KT 22/15 A301 RMK A01 T02240148  RH  062%=      5-min Rain = 0
KVP1 210906Z 19006KT 22/15 A301 RMK A01 T02240148  RH  062%=      5-min Rain = 0
KVP1 210907Z 19006KT 22/15 A301 RMK A01 T02240149  RH  062%=      5-min Rain = 0
KVP1 210908Z 19006KT 22/15 A301 RMK A01 T02240149  RH  062%=      5-min Rain = 0
KVP1 210909Z 19006KT 22/15 A301 RMK A01 T02230149  RH  063%=      5-min Rain = 0
KVP1 210910Z 19006KT 22/15 A301 RMK A01 T02230149  RH  063%=      5-min Rain = 0
KVP1 210911Z 20006KT 22/15 A301 RMK A01 T02230149  RH  063%=      5-min Rain = 0
KVP1 210912Z 19006KT 22/15 A301 RMK A01 T02230149  RH  063%=      5-min Rain = 0
KVP1 210913Z 20006KT 22/15 A301 RMK A01 T02230149  RH  063%=      5-min Rain = 0
KVP1 210914Z 20006KT 22/15 A301 RMK A01 T02230149  RH  063%=      5-min Rain = 0
KVP1 210915Z 20006KT 22/15 A3009 RMK A01 T02230149  RH  063%=      5-min Rain = 0
KVP1 210916Z 20006KT 22/15 A3009 RMK A01 T02230149  RH  063%=      5-min Rain = 0
KVP1 210917Z 20006KT 22/15 A3009 RMK A01 T02230149  RH  063%=      5-min Rain = 0
KVP1 210918Z 19006KT 22/15 A3009 RMK A01 T02230149  RH  063%=      5-min Rain = 0
KVP1 210919Z 20006KT 22/15 A3009 RMK A01 T02230149  RH  063%=      5-min Rain = 0
KVP1 210920Z 20006KT 22/15 A3009 RMK A01 T02230149  RH  063%=      5-min Rain = 0
KVP1 210921Z 20006KT 22/15 A3009 RMK A01 T02230149  RH  063%=      5-min Rain = 0
KVP1 210922Z 19006KT 22/15 A3009 RMK A01 T02230149  RH  063%=      5-min Rain = 0
KVP1 210923Z 19006KT 22/15 A3009 RMK A01 T02230149  RH  063%=      5-min Rain = 0
KVP1 210924Z 19007KT 22/15 A3009 RMK A01 T02230149  RH  063%=      5-min Rain = 0
KVP1 210925Z 19007KT 22/15 A3009 RMK A01 T02230148  RH  063%=      5-min Rain = 0
KVP1 210926Z 19007KT 22/15 A3009 RMK A01 T02230148  RH  063%=      5-min Rain = 0
KVP1 210927Z 19007KT 22/15 A3009 RMK A01 T02230148  RH  062%=      5-min Rain = 0
KVP1 210928Z 19007KT 22/15 A3009 RMK A01 T02230148  RH  062%=      5-min Rain = 0
KVP1 210929Z 19006KT 22/15 A3009 RMK A01 T02240148  RH  062%=      5-min Rain = 0
KVP1 210930Z 19006KT 22/15 A3009 RMK A01 T02240148  RH  062%=      5-min Rain = 0
KVP1 210931Z 19006KT 22/15 A3009 RMK A01 T02240147  RH  062%=      5-min Rain = 0
KVP1 210932Z 20006KT 23/15 A3009 RMK A01 T02250148  RH  062%=      5-min Rain = 0
KVP1 210933Z 20006KT 23/15 A3009 RMK A01 T02250148  RH  062%=      5-min Rain = 0
KVP1 210934Z 20006KT 22/15 A3009 RMK A01 T02240148  RH  062%=      5-min Rain = 0
KVP1 210935Z 21006KT 22/15 A3009 RMK A01 T02240148  RH  062%=      5-min Rain = 0
KVP1 210936Z 21006KT 22/15 A3009 RMK A01 T02230148  RH  062%=      5-min Rain = 0
KVP1 210937Z 21006KT 22/15 A3009 RMK A01 T02220148  RH  063%=      5-min Rain = 0
KVP1 210938Z 21006KT 22/15 A3009 RMK A01 T02210148  RH  063%=      5-min Rain = 0
KVP1 210939Z 21006KT 22/15 A3009 RMK A01 T02200148  RH  063%=      5-min Rain = 0
KVP1 210940Z 21006KT 22/15 A3009 RMK A01 T02200148  RH  064%=      5-min Rain = 0
KVP1 210941Z 21006KT 22/15 A3009 RMK A01 T02200148  RH  064%=      5-min Rain = 0
KVP1 210942Z 21006KT 22/15 A3009 RMK A01 T02200148  RH  064%=      5-min Rain = 0
KVP1 210943Z 21006KT 22/15 A3009 RMK A01 T02200148  RH  064%=      5-min Rain = 0
KVP1 210944Z 21006KT 22/15 A3009 RMK A01 T02200148  RH  064%=      5-min Rain = 0
KVP1 210945Z 21006KT 22/15 A3009 RMK A01 T02200148  RH  064%=      5-min Rain = 0
KVP1 210946Z 21007KT 22/15 A3009 RMK A01 T02200148  RH  064%=      5-min Rain = 0
KVP1 210947Z 21007KT 22/15 A3009 RMK A01 T02200148  RH  064%=      5-min Rain = 0
KVP1 210948Z 21007KT 22/15 A3009 RMK A01 T02200148  RH  064%=      5-min Rain = 0
KVP1 210949Z 21007KT 22/15 A3009 RMK A01 T02200148  RH  063%=      5-min Rain = 0
KVP1 210950Z 21008KT 22/15 A3009 RMK A01 T02200148  RH  063%=      5-min Rain = 0
KVP1 210951Z 21008KT 22/15 A3009 RMK A01 T02200148  RH  063%=      5-min Rain = 0
KVP1 210952Z 21008KT 22/15 A3009 RMK A01 T02200148  RH  063%=      5-min Rain = 0
KVP1 210953Z 21008KT 22/15 A3009 RMK A01 T02200148  RH  063%=      5-min Rain = 0
KVP1 210954Z 22007KT 22/15 A3009 RMK A01 T02210148  RH  063%=      5-min Rain = 0
KVP1 210955Z 22008KT 22/15 A3009 RMK A01 T02200148  RH  063%=      5-min Rain = 0
KVP1 210956Z 23008KT 22/15 A3009 RMK A01 T02200148  RH  064%=      5-min Rain = 0
KVP1 210957Z 23008KT 22/15 A3009 RMK A01 T02180148  RH  064%=      5-min Rain = 0
KVP1 210958Z 23008KT 22/15 A3009 RMK A01 T02170148  RH  065%=      5-min Rain = 0
KVP1 210959Z 22008KT 22/15 A3009 RMK A01 T02150148  RH  065%=      5-min Rain = 0
KVP1 211000Z 22009KT 21/15 A3009 RMK A01 T02140148  RH  066%=      5-min Rain = 0
KVP1 211001Z 21008KT 21/15 A3009 RMK A01 T02140148  RH  066%=      5-min Rain = 0
KVP1 211002Z 21008KT 21/15 A3009 RMK A01 T02130148  RH  066%=      5-min Rain = 0
KVP1 211003Z 21008KT 21/15 A3009 RMK A01 T02130148  RH  066%=      5-min Rain = 0
KVP1 211004Z 21008KT 21/15 A3009 RMK A01 T02130147  RH  066%=      5-min Rain = 0
KVP1 211005Z 20008KT 21/15 A3009 RMK A01 T02130148  RH  066%=      5-min Rain = 0
KVP1 211006Z 21008KT 21/15 A3009 RMK A01 T02130148  RH  066%=      5-min Rain = 0
KVP1 211007Z 20008KT 21/15 A3009 RMK A01 T02130148  RH  066%=      5-min Rain = 0
KVP1 211008Z 20008KT 21/15 A3008 RMK A01 T02130147  RH  066%=      5-min Rain = 0
KVP1 211009Z 21008KT 21/15 A3008 RMK A01 T02140148  RH  066%=      5-min Rain = 0
KVP1 211010Z 21008KT 21/15 A3008 RMK A01 T02140148  RH  066%=      5-min Rain = 0
KVP1 211011Z 21008KT 21/15 A3008 RMK A01 T02140148  RH  066%=      5-min Rain = 0
KVP1 211012Z 21008KT 21/15 A3008 RMK A01 T02140147  RH  066%=      5-min Rain = 0
KVP1 211013Z 21008KT 21/15 A3008 RMK A01 T02140148  RH  066%=      5-min Rain = 0
KVP1 211014Z 21008KT 22/15 A3008 RMK A01 T02150148  RH  066%=      5-min Rain = 0
KVP1 211015Z 21008KT 22/15 A3008 RMK A01 T02150148  RH  066%=      5-min Rain = 0
KVP1 211016Z 21008KT 22/15 A3008 RMK A01 T02150148  RH  066%=      5-min Rain = 0
KVP1 211017Z 21008KT 22/15 A3008 RMK A01 T02150148  RH  065%=      5-min Rain = 0
KVP1 211018Z 21008KT 22/15 A3008 RMK A01 T02150148  RH  065%=      5-min Rain = 0
KVP1 211019Z 21007KT 22/15 A3008 RMK A01 T02160148  RH  065%=      5-min Rain = 0
KVP1 211020Z 20007KT 22/15 A3008 RMK A01 T02160148  RH  065%=      5-min Rain = 0
KVP1 211021Z 20007KT 22/15 A3008 RMK A01 T02160148  RH  065%=      5-min Rain = 0
KVP1 211022Z 20007KT 22/15 A3008 RMK A01 T02150148  RH  065%=      5-min Rain = 0
KVP1 211023Z 19007KT 22/15 A3008 RMK A01 T02150148  RH  066%=      5-min Rain = 0
KVP1 211024Z 19007KT 21/15 A3008 RMK A01 T02140148  RH  066%=      5-min Rain = 0
KVP1 211025Z 19007KT 21/15 A3008 RMK A01 T02140148  RH  066%=      5-min Rain = 0
KVP1 211026Z 19007KT 21/15 A3008 RMK A01 T02140148  RH  066%=      5-min Rain = 0
KVP1 211027Z 19007KT 21/15 A3008 RMK A01 T02140148  RH  066%=      5-min Rain = 0
KVP1 211028Z 19007KT 21/15 A3008 RMK A01 T02140148  RH  066%=      5-min Rain = 0
KVP1 211029Z 19007KT 21/15 A3008 RMK A01 T02140147  RH  066%=      5-min Rain = 0
KVP1 211030Z 19007KT 21/15 A3008 RMK A01 T02140147  RH  066%=      5-min Rain = 0
KVP1 211031Z 19007KT 21/15 A3008 RMK A01 T02140148  RH  066%=      5-min Rain = 0
KVP1 211032Z 19008KT 21/15 A3008 RMK A01 T02140147  RH  066%=      5-min Rain = 0
KVP1 211033Z 19008KT 21/15 A3008 RMK A01 T02140147  RH  065%=      5-min Rain = 0
KVP1 211034Z 20009KT 22/15 A3008 RMK A01 T02150147  RH  065%=      5-min Rain = 0
KVP1 211035Z 20009KT 22/15 A3008 RMK A01 T02160148  RH  065%=      5-min Rain = 0
KVP1 211036Z 20009KT 22/15 A3008 RMK A01 T02180148  RH  064%=      5-min Rain = 0
KVP1 211037Z 20009KT 22/15 A3009 RMK A01 T02190148  RH  064%=      5-min Rain = 0
KVP1 211038Z 20009KT 22/15 A3009 RMK A01 T02200148  RH  064%=      5-min Rain = 0
KVP1 211039Z 20009KT 22/15 A3009 RMK A01 T02200148  RH  064%=      5-min Rain = 0
KVP1 211040Z 20008KT 22/15 A3009 RMK A01 T02210148  RH  063%=      5-min Rain = 0
KVP1 211041Z 20008KT 22/15 A3009 RMK A01 T02210148  RH  063%=      5-min Rain = 0
KVP1 211042Z 20008KT 22/15 A3009 RMK A01 T02200148  RH  063%=      5-min Rain = 0
KVP1 211043Z 20008KT 22/15 A3009 RMK A01 T02200148  RH  064%=      5-min Rain = 0
KVP1 211044Z 20008KT 22/15 A3009 RMK A01 T02200148  RH  064%=      5-min Rain = 0
KVP1 211045Z 20008KT 22/15 A3009 RMK A01 T02190148  RH  064%=      5-min Rain = 0
KVP1 211046Z 20008KT 22/15 A3009 RMK A01 T02190148  RH  064%=      5-min Rain = 0
KVP1 211047Z 20008KT 22/15 A3009 RMK A01 T02180148  RH  064%=      5-min Rain = 0
KVP1 211048Z 20009KT 22/15 A3009 RMK A01 T02180148  RH  064%=      5-min Rain = 0
KVP1 211049Z 20009KT 22/15 A3009 RMK A01 T02180148  RH  065%=      5-min Rain = 0
KVP1 211050Z 20009KT 22/15 A3009 RMK A01 T02180148  RH  064%=      5-min Rain = 0
KVP1 211051Z 20009KT 22/15 A3009 RMK A01 T02180148  RH  064%=      5-min Rain = 0
KVP1 211052Z 20008KT 22/15 A3009 RMK A01 T02190148  RH  064%=      5-min Rain = 0
KVP1 211053Z 20009KT 22/15 A3009 RMK A01 T02190148  RH  064%=      5-min Rain = 0
KVP1 211054Z 20008KT 22/15 A3009 RMK A01 T02190148  RH  064%=      5-min Rain = 0
KVP1 211055Z 20008KT 22/15 A3009 RMK A01 T02190148  RH  064%=      5-min Rain = 0
KVP1 211056Z 20008KT 22/15 A3009 RMK A01 T02180148  RH  064%=      5-min Rain = 0
KVP1 211057Z 21008KT 22/15 A3009 RMK A01 T02180148  RH  064%=      5-min Rain = 0
KVP1 211058Z 21008KT 22/15 A3009 RMK A01 T02170148  RH  064%=      5-min Rain = 0
KVP1 211059Z 20008KT 22/15 A3009 RMK A01 T02160147  RH  065%=      5-min Rain = 0
KVP1 211100Z 21008KT 22/15 A3009 RMK A01 T02150147  RH  065%=      5-min Rain = 0
KVP1 211101Z 21008KT 22/15 A3009 RMK A01 T02150147  RH  065%=      5-min Rain = 0
KVP1 211102Z 21008KT 21/15 A3009 RMK A01 T02140147  RH  066%=      5-min Rain = 0
KVP1 211103Z 21008KT 21/15 A3009 RMK A01 T02130147  RH  066%=      5-min Rain = 0
KVP1 211104Z 21008KT 21/15 A3009 RMK A01 T02120147  RH  066%=      5-min Rain = 0
KVP1 211105Z 21008KT 21/15 A3009 RMK A01 T02100147  RH  067%=      5-min Rain = 0
KVP1 211106Z 21008KT 21/15 A3009 RMK A01 T02100146  RH  067%=      5-min Rain = 0
KVP1 211107Z 21008KT 21/15 A3009 RMK A01 T02090146  RH  067%=      5-min Rain = 0
KVP1 211108Z 21008KT 21/15 A3009 RMK A01 T02080146  RH  067%=      5-min Rain = 0
KVP1 211109Z 21007KT 21/15 A3009 RMK A01 T02080146  RH  068%=      5-min Rain = 0
KVP1 211110Z 21008KT 21/15 A3009 RMK A01 T02070146  RH  068%=      5-min Rain = 0
KVP1 211111Z 21007KT 21/15 A3009 RMK A01 T02070146  RH  068%=      5-min Rain = 0
KVP1 211112Z 21007KT 21/15 A3009 RMK A01 T02060146  RH  068%=      5-min Rain = 0
KVP1 211113Z 21007KT 21/15 A3009 RMK A01 T02060146  RH  068%=      5-min Rain = 0
KVP1 211114Z 21008KT 21/15 A3009 RMK A01 T02060146  RH  068%=      5-min Rain = 0
KVP1 211115Z 21008KT 21/15 A3009 RMK A01 T02050145  RH  069%=      5-min Rain = 0
KVP1 211116Z 20007KT 21/15 A3009 RMK A01 T02050145  RH  069%=      5-min Rain = 0
KVP1 211117Z 20007KT 21/15 A3009 RMK A01 T02050145  RH  069%=      5-min Rain = 0
KVP1 211118Z 20007KT 21/15 A3009 RMK A01 T02050146  RH  069%=      5-min Rain = 0
KVP1 211119Z 20007KT 21/15 A3009 RMK A01 T02050146  RH  069%=      5-min Rain = 0
KVP1 211120Z 21007KT 21/15 A3009 RMK A01 T02050146  RH  069%=      5-min Rain = 0
KVP1 211121Z 21008KT 21/15 A3009 RMK A01 T02050146  RH  069%=      5-min Rain = 0
KVP1 211122Z 21008KT 20/15 A3009 RMK A01 T02040145  RH  069%=      5-min Rain = 0
KVP1 211123Z 21007KT 20/15 A3009 RMK A01 T02040145  RH  069%=      5-min Rain = 0
KVP1 211124Z 21007KT 20/15 A3009 RMK A01 T02040145  RH  069%=      5-min Rain = 0
KVP1 211125Z 21007KT 20/15 A3009 RMK A01 T02040145  RH  069%=      5-min Rain = 0
KVP1 211126Z 21007KT 20/15 A3009 RMK A01 T02030146  RH  069%=      5-min Rain = 0
KVP1 211127Z 21007KT 20/15 A3009 RMK A01 T02020145  RH  069%=      5-min Rain = 0
KVP1 211128Z 22007KT 20/15 A301 RMK A01 T02010145  RH  070%=      5-min Rain = 0
KVP1 211129Z 22007KT 20/15 A301 RMK A01 T02000145  RH  070%=      5-min Rain = 0
KVP1 211130Z 22007KT 20/15 A301 RMK A01 T02000145  RH  070%=      5-min Rain = 0
KVP1 211131Z 22007KT 20/15 A301 RMK A01 T01990145  RH  071%=      5-min Rain = 0
KVP1 211132Z 22007KT 20/14 A301 RMK A01 T01980144  RH  071%=      5-min Rain = 0
KVP1 211133Z 21006KT 20/14 A301 RMK A01 T01980144  RH  071%=      5-min Rain = 0
KVP1 211134Z 20005KT 20/15 A301 RMK A01 T01970145  RH  072%=      5-min Rain = 0
KVP1 211135Z 21006KT 20/14 A301 RMK A01 T01960144  RH  072%=      5-min Rain = 0
KVP1 211136Z 21007KT 20/14 A301 RMK A01 T01950144  RH  072%=      5-min Rain = 0
KVP1 211137Z 21007KT 19/14 A301 RMK A01 T01940144  RH  073%=      5-min Rain = 0
KVP1 211138Z 21007KT 19/14 A301 RMK A01 T01930144  RH  073%=      5-min Rain = 0
KVP1 211139Z 21007KT 19/14 A301 RMK A01 T01930144  RH  073%=      5-min Rain = 0
KVP1 211140Z 21007KT 19/14 A301 RMK A01 T01920144  RH  074%=      5-min Rain = 0
KVP1 211141Z 21007KT 19/14 A301 RMK A01 T01910144  RH  074%=      5-min Rain = 0
KVP1 211142Z 21006KT 19/14 A301 RMK A01 T01910144  RH  074%=      5-min Rain = 0
KVP1 211143Z 20006KT 19/14 A301 RMK A01 T01900144  RH  075%=      5-min Rain = 0
KVP1 211144Z 19005KT 19/14 A301 RMK A01 T01890144  RH  075%=      5-min Rain = 0
KVP1 211145Z 19005KT 19/15 A301 RMK A01 T01890145  RH  076%=      5-min Rain = 0
KVP1 211146Z 19006KT 19/15 A301 RMK A01 T01880145  RH  076%=      5-min Rain = 0
KVP1 211147Z 18006KT 19/14 A301 RMK A01 T01880144  RH  076%=      5-min Rain = 0
KVP1 211148Z 18006KT 19/14 A301 RMK A01 T01880144  RH  076%=      5-min Rain = 0
KVP1 211149Z 18006KT 19/14 A301 RMK A01 T01880143  RH  075%=      5-min Rain = 0
KVP1 211150Z 19007KT 19/14 A301 RMK A01 T01880142  RH  075%=      5-min Rain = 0
KVP1 211151Z 19007KT 19/14 A301 RMK A01 T01880142  RH  074%=      5-min Rain = 0
KVP1 211152Z 19007KT 19/14 A301 RMK A01 T01900142  RH  074%=      5-min Rain = 0
KVP1 211153Z 19007KT 19/14 A3011 RMK A01 T01900142  RH  073%=      5-min Rain = 0
KVP1 211154Z 19007KT 19/14 A3011 RMK A01 T01910142  RH  073%=      5-min Rain = 0
KVP1 211155Z 19007KT 19/14 A3011 RMK A01 T01920142  RH  073%=      5-min Rain = 0
KVP1 211156Z 19007KT 19/14 A3011 RMK A01 T01930142  RH  072%=      5-min Rain = 0
KVP1 211157Z 18006KT 19/14 A3011 RMK A01 T01930142  RH  072%=      5-min Rain = 0
KVP1 211158Z 18006KT 19/14 A3011 RMK A01 T01930142  RH  072%=      5-min Rain = 0
KVP1 211159Z 18006KT 19/14 A3011 RMK A01 T01930142  RH  072%=      5-min Rain = 0
KVP1 211200Z 17006KT 19/14 A3011 RMK A01 T01930141  RH  072%=      5-min Rain = 0
KVP1 211201Z 18006KT 19/14 A3011 RMK A01 T01930141  RH  072%=      5-min Rain = 0
KVP1 211202Z 18006KT 19/14 A3011 RMK A01 T01930141  RH  072%=      5-min Rain = 0
KVP1 211203Z 19006KT 19/14 A3011 RMK A01 T01930141  RH  072%=      5-min Rain = 0
KVP1 211204Z 19006KT 19/14 A3011 RMK A01 T01930140  RH  072%=      5-min Rain = 0
KVP1 211205Z 18006KT 19/14 A3011 RMK A01 T01930141  RH  072%=      5-min Rain = 0
KVP1 211206Z 18006KT 19/14 A3011 RMK A01 T01920140  RH  072%=      5-min Rain = 0
KVP1 211207Z 18006KT 19/14 A3011 RMK A01 T01920140  RH  072%=      5-min Rain = 0
KVP1 211208Z 18007KT 19/14 A3011 RMK A01 T01920140  RH  072%=      5-min Rain = 0
KVP1 211209Z 19006KT 19/14 A3011 RMK A01 T01920141  RH  072%=      5-min Rain = 0
KVP1 211210Z 19006KT 19/14 A3011 RMK A01 T01920141  RH  072%=      5-min Rain = 0
KVP1 211211Z 19006KT 19/14 A3011 RMK A01 T01920141  RH  072%=      5-min Rain = 0
KVP1 211212Z 19006KT 19/14 A3011 RMK A01 T01920141  RH  073%=      5-min Rain = 0
KVP1 211213Z 19006KT 19/14 A3011 RMK A01 T01910141  RH  073%=      5-min Rain = 0
KVP1 211214Z 18006KT 19/14 A3011 RMK A01 T01910142  RH  073%=      5-min Rain = 0
KVP1 211215Z 19006KT 19/14 A3011 RMK A01 T01910142  RH  073%=      5-min Rain = 0
KVP1 211216Z 19006KT 19/14 A3011 RMK A01 T01910142  RH  073%=      5-min Rain = 0
KVP1 211217Z 19006KT 19/14 A3011 RMK A01 T01910142  RH  073%=      5-min Rain = 0
KVP1 211218Z 19006KT 19/14 A3011 RMK A01 T01910142  RH  073%=      5-min Rain = 0
KVP1 211219Z 19006KT 19/14 A3011 RMK A01 T01910142  RH  073%=      5-min Rain = 0
KVP1 211220Z 20006KT 19/14 A3011 RMK A01 T01910142  RH  073%=      5-min Rain = 0
KVP1 211221Z 20007KT 19/14 A3011 RMK A01 T01910143  RH  073%=      5-min Rain = 0
KVP1 211222Z 20007KT 19/14 A3011 RMK A01 T01910143  RH  073%=      5-min Rain = 0
KVP1 211223Z 20007KT 19/14 A3011 RMK A01 T01920143  RH  073%=      5-min Rain = 0
KVP1 211224Z 20007KT 19/14 A3011 RMK A01 T01920143  RH  073%=      5-min Rain = 0
KVP1 211225Z 20007KT 19/14 A3011 RMK A01 T01930144  RH  073%=      5-min Rain = 0
KVP1 211226Z 20007KT 19/14 A3011 RMK A01 T01930144  RH  073%=      5-min Rain = 0
KVP1 211227Z 20007KT 19/14 A3011 RMK A01 T01930143  RH  073%=      5-min Rain = 0
KVP1 211228Z 20006KT 19/14 A3011 RMK A01 T01930144  RH  073%=      5-min Rain = 0
KVP1 211229Z 20006KT 19/14 A3011 RMK A01 T01930144  RH  073%=      5-min Rain = 0
KVP1 211230Z 20007KT 19/14 A3011 RMK A01 T01940144  RH  073%=      5-min Rain = 0
KVP1 211231Z 20007KT 19/14 A3011 RMK A01 T01940144  RH  073%=      5-min Rain = 0
KVP1 211232Z 20007KT 19/14 A3011 RMK A01 T01940144  RH  073%=      5-min Rain = 0
KVP1 211233Z 20007KT 20/14 A3011 RMK A01 T01950144  RH  072%=      5-min Rain = 0
KVP1 211234Z 20007KT 20/14 A3012 RMK A01 T01950144  RH  072%=      5-min Rain = 0
KVP1 211235Z 20007KT 20/14 A3012 RMK A01 T01960144  RH  072%=      5-min Rain = 0
KVP1 211236Z 20007KT 20/14 A3012 RMK A01 T01970144  RH  072%=      5-min Rain = 0
KVP1 211237Z 20008KT 20/14 A3012 RMK A01 T01970144  RH  071%=      5-min Rain = 0
KVP1 211238Z 20007KT 20/14 A3012 RMK A01 T01990144  RH  071%=      5-min Rain = 0
KVP1 211239Z 20007KT 20/15 A3012 RMK A01 T02000145  RH  070%=      5-min Rain = 0
KVP1 211240Z 20007KT 20/15 A3012 RMK A01 T02010145  RH  070%=      5-min Rain = 0
KVP1 211241Z 20007KT 20/15 A3012 RMK A01 T02020145  RH  069%=      5-min Rain = 0
KVP1 211242Z 20007KT 20/15 A3012 RMK A01 T02030145  RH  069%=      5-min Rain = 0
KVP1 211243Z 20007KT 20/15 A3012 RMK A01 T02040145  RH  069%=      5-min Rain = 0
KVP1 211244Z 19007KT 20/15 A3012 RMK A01 T02040145  RH  069%=      5-min Rain = 0
KVP1 211245Z 19007KT 20/15 A3012 RMK A01 T02040145  RH  069%=      5-min Rain = 0
KVP1 211246Z 19007KT 21/15 A3012 RMK A01 T02050145  RH  069%=      5-min Rain = 0
KVP1 211247Z 19007KT 21/15 A3012 RMK A01 T02050145  RH  068%=      5-min Rain = 0
KVP1 211248Z 19007KT 21/15 A3012 RMK A01 T02060145  RH  068%=      5-min Rain = 0
KVP1 211249Z 20007KT 21/15 A3012 RMK A01 T02070145  RH  068%=      5-min Rain = 0
KVP1 211250Z 19007KT 21/15 A3012 RMK A01 T02070145  RH  068%=      5-min Rain = 0
KVP1 211251Z 19008KT 21/15 A3012 RMK A01 T02080145  RH  067%=      5-min Rain = 0
KVP1 211252Z 19008KT 21/14 A3012 RMK A01 T02080144  RH  067%=      5-min Rain = 0
KVP1 211253Z 20007KT 21/15 A3012 RMK A01 T02090145  RH  066%=      5-min Rain = 0
KVP1 211254Z 20007KT 21/15 A3012 RMK A01 T02100145  RH  066%=      5-min Rain = 0
KVP1 211255Z 20007KT 21/15 A3012 RMK A01 T02110145  RH  066%=      5-min Rain = 0
KVP1 211256Z 20006KT 21/15 A3012 RMK A01 T02110145  RH  066%=      5-min Rain = 0
KVP1 211257Z 20006KT 21/15 A3012 RMK A01 T02120145  RH  066%=      5-min Rain = 0
KVP1 211258Z 20007KT 21/15 A3012 RMK A01 T02120145  RH  065%=      5-min Rain = 0
KVP1 211259Z 20006KT 21/15 A3012 RMK A01 T02130146  RH  065%=      5-min Rain = 0
KVP1 211300Z 20006KT 21/15 A3012 RMK A01 T02130146  RH  065%=      5-min Rain = 0
KVP1 211301Z 20007KT 21/15 A3012 RMK A01 T02140146  RH  065%=      5-min Rain = 0
KVP1 211302Z 20007KT 21/15 A3012 RMK A01 T02140145  RH  065%=      5-min Rain = 0
KVP1 211303Z 20007KT 22/15 A3012 RMK A01 T02150145  RH  064%=      5-min Rain = 0
KVP1 211304Z 20007KT 22/15 A3012 RMK A01 T02150145  RH  064%=      5-min Rain = 0
KVP1 211305Z 20007KT 22/15 A3012 RMK A01 T02150145  RH  064%=      5-min Rain = 0
KVP1 211306Z 20008KT 22/15 A3012 RMK A01 T02160145  RH  064%=      5-min Rain = 0
KVP1 211307Z 20008KT 22/15 A3012 RMK A01 T02170145  RH  064%=      5-min Rain = 0
KVP1 211308Z 20008KT 22/15 A3012 RMK A01 T02180145  RH  063%=      5-min Rain = 0
KVP1 211309Z 20007KT 22/15 A3012 RMK A01 T02190145  RH  063%=      5-min Rain = 0
KVP1 211310Z 21007KT 22/15 A3012 RMK A01 T02190146  RH  063%=      5-min Rain = 0
KVP1 211311Z 21008KT 22/15 A3012 RMK A01 T02200145  RH  063%=      5-min Rain = 0
KVP1 211312Z 21007KT 22/15 A3012 RMK A01 T02200145  RH  062%=      5-min Rain = 0
KVP1 211313Z 20007KT 22/15 A3012 RMK A01 T02200145  RH  062%=      5-min Rain = 0
KVP1 211314Z 21008KT 22/15 A3012 RMK A01 T02190145  RH  063%=      5-min Rain = 0
KVP1 211315Z 20008KT 22/14 A3012 RMK A01 T02190144  RH  063%=      5-min Rain = 0
KVP1 211316Z 21007KT 22/15 A3012 RMK A01 T02180145  RH  063%=      5-min Rain = 0
KVP1 211317Z 21008KT 22/14 A3012 RMK A01 T02180144  RH  063%=      5-min Rain = 0
KVP1 211318Z 21008KT 22/14 A3012 RMK A01 T02170144  RH  063%=      5-min Rain = 0
KVP1 211319Z 21007KT 22/15 A3012 RMK A01 T02170145  RH  063%=      5-min Rain = 0
KVP1 211320Z 21007KT 22/15 A3012 RMK A01 T02170145  RH  063%=      5-min Rain = 0
KVP1 211321Z 21007KT 22/15 A3012 RMK A01 T02170145  RH  063%=      5-min Rain = 0
KVP1 211322Z 21007KT 22/14 A3012 RMK A01 T02170144  RH  063%=      5-min Rain = 0
KVP1 211323Z 21007KT 22/14 A3012 RMK A01 T02170144  RH  063%=      5-min Rain = 0
KVP1 211324Z 21008KT 22/14 A3012 RMK A01 T02170143  RH  063%=      5-min Rain = 0
KVP1 211325Z 21007KT 22/14 A3012 RMK A01 T02180144  RH  063%=      5-min Rain = 0
KVP1 211326Z 21008KT 22/14 A3012 RMK A01 T02180144  RH  063%=      5-min Rain = 0
KVP1 211327Z 21007KT 22/14 A3012 RMK A01 T02180143  RH  062%=      5-min Rain = 0
KVP1 211328Z 21007KT 22/14 A3012 RMK A01 T02190144  RH  062%=      5-min Rain = 0
KVP1 211329Z 21008KT 22/14 A3012 RMK A01 T02190144  RH  062%=      5-min Rain = 0
KVP1 211330Z 21008KT 22/14 A3012 RMK A01 T02190144  RH  062%=      5-min Rain = 0
KVP1 211331Z 21008KT 22/14 A3012 RMK A01 T02200143  RH  062%=      5-min Rain = 0
KVP1 211332Z 21007KT 22/14 A3012 RMK A01 T02210144  RH  062%=      5-min Rain = 0
KVP1 211333Z 21007KT 22/14 A3012 RMK A01 T02220144  RH  061%=      5-min Rain = 0
KVP1 211334Z 21007KT 22/14 A3012 RMK A01 T02240144  RH  060%=      5-min Rain = 0
KVP1 211335Z 22007G12KT 23/15 A3012 RMK A01 T02270145  RH  060%=      5-min Rain = 0
KVP1 211336Z 21008KT 23/15 A3012 RMK A01 T02300145  RH  059%=      5-min Rain = 0
KVP1 211337Z 21008KT 23/15 A3012 RMK A01 T02320145  RH  058%=      5-min Rain = 0
KVP1 211338Z 21009KT 23/15 A3012 RMK A01 T02330145  RH  058%=      5-min Rain = 0
KVP1 211339Z 22009KT 24/14 A3012 RMK A01 T02350144  RH  057%=      5-min Rain = 0
KVP1 211340Z 22007KT 24/15 A3012 RMK A01 T02360145  RH  057%=      5-min Rain = 0
KVP1 211341Z 22007KT 24/15 A3012 RMK A01 T02370145  RH  056%=      5-min Rain = 0
KVP1 211342Z 22007KT 24/15 A3012 RMK A01 T02380145  RH  056%=      5-min Rain = 0
KVP1 211343Z 22008KT 24/15 A3012 RMK A01 T02380145  RH  056%=      5-min Rain = 0
KVP1 211344Z 22009KT 24/14 A3012 RMK A01 T02370144  RH  056%=      5-min Rain = 0
KVP1 211345Z 22007KT 24/14 A3012 RMK A01 T02360144  RH  056%=      5-min Rain = 0
KVP1 211346Z 21008KT 24/15 A3012 RMK A01 T02370145  RH  056%=      5-min Rain = 0
KVP1 211347Z 22009KT 24/14 A3012 RMK A01 T02360144  RH  056%=      5-min Rain = 0
KVP1 211348Z 22008KT 24/14 A3012 RMK A01 T02360144  RH  056%=      5-min Rain = 0
KVP1 211349Z 22007KT 24/14 A3012 RMK A01 T02350144  RH  057%=      5-min Rain = 0
KVP1 211350Z 22007KT 24/14 A3013 RMK A01 T02350144  RH  057%=      5-min Rain = 0
KVP1 211351Z 22006KT 24/15 A3012 RMK A01 T02350145  RH  057%=      5-min Rain = 0
KVP1 211352Z 22007KT 24/15 A3013 RMK A01 T02350145  RH  057%=      5-min Rain = 0
KVP1 211353Z 22007KT 24/15 A3013 RMK A01 T02360145  RH  056%=      5-min Rain = 0
KVP1 211354Z 23005KT 24/15 A3013 RMK A01 T02370145  RH  056%=      5-min Rain = 0
KVP1 211355Z 23005KT 24/15 A3013 RMK A01 T02380146  RH  056%=      5-min Rain = 0
KVP1 211356Z 22007KT 24/15 A3012 RMK A01 T02390145  RH  056%=      5-min Rain = 0
KVP1 211357Z 23007KT 24/15 A3012 RMK A01 T02410146  RH  055%=      5-min Rain = 0
KVP1 211358Z 22006KT 24/15 A3012 RMK A01 T02430147  RH  055%=      5-min Rain = 0
KVP1 211359Z 23007KT 25/15 A3012 RMK A01 T02460148  RH  054%=      5-min Rain = 0
KVP1 211400Z 23007KT 25/15 A3012 RMK A01 T02490149  RH  054%=      5-min Rain = 0
KVP1 211401Z 23009KT 25/15 A3012 RMK A01 T02520148  RH  053%=      5-min Rain = 0
KVP1 211402Z 23009KT 25/15 A3012 RMK A01 T02540148  RH  052%=      5-min Rain = 0
KVP1 211403Z 23009KT 26/15 A3012 RMK A01 T02550148  RH  051%=      5-min Rain = 0
KVP1 211404Z 23009KT 26/15 A3012 RMK A01 T02570148  RH  051%=      5-min Rain = 0
KVP1 211405Z 23010KT 26/15 A3012 RMK A01 T02580148  RH  051%=      5-min Rain = 0
KVP1 211406Z 23009KT 26/15 A3012 RMK A01 T02580149  RH  051%=      5-min Rain = 0
KVP1 211407Z 23009KT 26/15 A3012 RMK A01 T02600150  RH  051%=      5-min Rain = 0
KVP1 211408Z 24011KT 26/15 A3012 RMK A01 T02620149  RH  050%=      5-min Rain = 0
KVP1 211409Z 23010KT 26/15 A3012 RMK A01 T02640149  RH  049%=      5-min Rain = 0
KVP1 211410Z 23009KT 26/15 A3012 RMK A01 T02640150  RH  049%=      5-min Rain = 0
KVP1 211411Z 23008KT 27/15 A3012 RMK A01 T02670150  RH  049%=      5-min Rain = 0
KVP1 211412Z 23011KT 27/15 A3012 RMK A01 T02700150  RH  048%=      5-min Rain = 0
KVP1 211413Z 23010KT 27/15 A3012 RMK A01 T02710150  RH  047%=      5-min Rain = 0
KVP1 211414Z 22009KT 27/15 A3012 RMK A01 T02730150  RH  047%=      5-min Rain = 0
KVP1 211415Z 22011KT 27/15 A3012 RMK A01 T02730150  RH  047%=      5-min Rain = 0
KVP1 211416Z 23010KT 27/15 A3012 RMK A01 T02740150  RH  047%=      5-min Rain = 0
KVP1 211417Z 22011KT 27/15 A3012 RMK A01 T02720149  RH  047%=      5-min Rain = 0
KVP1 211418Z 23011KT 27/15 A3012 RMK A01 T02690149  RH  048%=      5-min Rain = 0
KVP1 211419Z 22011KT 27/15 A3012 RMK A01 T02680149  RH  048%=      5-min Rain = 0
KVP1 211420Z 23011KT 27/15 A3012 RMK A01 T02690149  RH  048%=      5-min Rain = 0
KVP1 211421Z 22010KT 27/15 A3012 RMK A01 T02710150  RH  048%=      5-min Rain = 0
KVP1 211422Z 23012KT 27/15 A3012 RMK A01 T02740151  RH  047%=      5-min Rain = 0
KVP1 211423Z 23010KT 28/15 A3012 RMK A01 T02750150  RH  046%=      5-min Rain = 0
KVP1 211424Z 22010KT 28/15 A3012 RMK A01 T02750151  RH  047%=      5-min Rain = 0
KVP1 211425Z 22009KT 28/15 A3012 RMK A01 T02770151  RH  046%=      5-min Rain = 0
KVP1 211426Z 22011KT 28/15 A3012 RMK A01 T02790152  RH  046%=      5-min Rain = 0
KVP1 211427Z 23014KT 28/15 A3012 RMK A01 T02810151  RH  045%=      5-min Rain = 0
KVP1 211428Z 22014KT 28/15 A3012 RMK A01 T02790150  RH  045%=      5-min Rain = 0
KVP1 211429Z 22013KT 28/15 A3012 RMK A01 T02770150  RH  046%=      5-min Rain = 0
KVP1 211430Z 23012KT 28/15 A3012 RMK A01 T02770150  RH  046%=      5-min Rain = 0
KVP1 211431Z 22013KT 28/15 A3012 RMK A01 T02760151  RH  046%=      5-min Rain = 0
KVP1 211432Z 23013KT 28/15 A3012 RMK A01 T02760149  RH  046%=      5-min Rain = 0
KVP1 211433Z 22010KT 28/15 A3012 RMK A01 T02780152  RH  046%=      5-min Rain = 0
KVP1 211434Z 23014KT 28/15 A3012 RMK A01 T02820152  RH  045%=      5-min Rain = 0
KVP1 211435Z 23013KT 28/15 A3012 RMK A01 T02820150  RH  045%=      5-min Rain = 0
KVP1 211436Z 23012KT 28/15 A3012 RMK A01 T02820151  RH  045%=      5-min Rain = 0
KVP1 211437Z 23013KT 28/15 A3012 RMK A01 T02820151  RH  045%=      5-min Rain = 0
KVP1 211438Z 22014KT 28/15 A3012 RMK A01 T02820151  RH  045%=      5-min Rain = 0
KVP1 211439Z 23011KT 28/15 A3012 RMK A01 T02830152  RH  045%=      5-min Rain = 0
KVP1 211440Z 23010KT 29/15 A3012 RMK A01 T02850153  RH  045%=      5-min Rain = 0
KVP1 211441Z 24014KT 29/15 A3012 RMK A01 T02880153  RH  044%=      5-min Rain = 0
KVP1 211442Z 23014KT 29/15 A3012 RMK A01 T02890153  RH  044%=      5-min Rain = 0
KVP1 211443Z 23016KT 29/15 A3012 RMK A01 T02900153  RH  043%=      5-min Rain = 0
KVP1 211444Z 23015KT 29/15 A3012 RMK A01 T02910152  RH  043%=      5-min Rain = 0
KVP1 211445Z 23017KT 29/15 A3012 RMK A01 T02920151  RH  043%=      5-min Rain = 0
KVP1 211446Z 23015KT 29/15 A3012 RMK A01 T02920150  RH  042%=      5-min Rain = 0
KVP1 211447Z 23015KT 29/15 A3012 RMK A01 T02920151  RH  042%=      5-min Rain = 0
KVP1 211448Z 22013KT 29/15 A3012 RMK A01 T02940152  RH  042%=      5-min Rain = 0
KVP1 211449Z 22014KT 30/15 A3012 RMK A01 T02960152  RH  042%=      5-min Rain = 0
KVP1 211450Z 23016KT 30/15 A3012 RMK A01 T02970151  RH  041%=      5-min Rain = 0
KVP1 211451Z 22014KT 30/15 A3012 RMK A01 T02960151  RH  041%=      5-min Rain = 0
KVP1 211452Z 23015KT 30/15 A3012 RMK A01 T02970152  RH  041%=      5-min Rain = 0
KVP1 211453Z 24017KT 30/15 A3012 RMK A01 T02980151  RH  041%=      5-min Rain = 0
KVP1 211454Z 24017KT 30/15 A3012 RMK A01 T02950150  RH  041%=      5-min Rain = 0
KVP1 211455Z 24014KT 30/15 A3012 RMK A01 T02950150  RH  041%=      5-min Rain = 0
KVP1 211456Z 23016KT 30/15 A3012 RMK A01 T02950150  RH  041%=      5-min Rain = 0
KVP1 211457Z 23012KT 30/15 A3012 RMK A01 T02950151  RH  041%=      5-min Rain = 0
KVP1 211458Z 22014G19KT 30/15 A3012 RMK A01 T02980153  RH  041%=      5-min Rain = 0
KVP1 211459Z 22015KT 30/15 A3012 RMK A01 T03010151  RH  040%=      5-min Rain = 0
KVP1 211500Z 22017KT 30/15 A3012 RMK A01 T03020152  RH  040%=      5-min Rain = 0
KVP1 211501Z 22016KT 30/15 A3012 RMK A01 T03020151  RH  040%=      5-min Rain = 0
KVP1 211502Z 23013G18KT 30/15 A3012 RMK A01 T03020151  RH  040%=      5-min Rain = 0
KVP1 211503Z 24016KT 30/15 A3012 RMK A01 T03040151  RH  039%=      5-min Rain = 0
KVP1 211504Z 24017KT 30/15 A3012 RMK A01 T03040151  RH  040%=      5-min Rain = 0
KVP1 211505Z 24018KT 30/15 A3012 RMK A01 T03020151  RH  040%=      5-min Rain = 0
KVP1 211506Z 23019KT 30/15 A3012 RMK A01 T03000151  RH  040%=      5-min Rain = 0
KVP1 211507Z 22016KT 30/15 A3012 RMK A01 T03000150  RH  040%=      5-min Rain = 0
KVP1 211508Z 22017KT 30/15 A3012 RMK A01 T02990150  RH  041%=      5-min Rain = 0
KVP1 211509Z 22013G20KT 30/15 A3012 RMK A01 T02980150  RH  041%=      5-min Rain = 0
KVP1 211510Z 23012KT 30/15 A3012 RMK A01 T02990152  RH  041%=      5-min Rain = 0
KVP1 211511Z 23017G22KT 30/15 A3012 RMK A01 T03010151  RH  040%=      5-min Rain = 0
KVP1 211512Z 23017KT 30/15 A3012 RMK A01 T03000150  RH  040%=      5-min Rain = 0
KVP1 211513Z 23016KT 30/15 A3012 RMK A01 T02990151  RH  040%=      5-min Rain = 0
KVP1 211514Z 23017KT 30/15 A3012 RMK A01 T02990150  RH  041%=      5-min Rain = 0
KVP1 211515Z 23016KT 30/15 A3012 RMK A01 T02990150  RH  040%=      5-min Rain = 0
KVP1 211516Z 23013KT 30/15 A3012 RMK A01 T02980151  RH  041%=      5-min Rain = 0
KVP1 211517Z 23016KT 30/15 A3012 RMK A01 T03000152  RH  041%=      5-min Rain = 0
KVP1 211518Z 23017KT 30/15 A3012 RMK A01 T03000151  RH  040%=      5-min Rain = 0
KVP1 211519Z 23013KT 30/15 A3012 RMK A01 T02990151  RH  041%=      5-min Rain = 0
KVP1 211520Z 23016KT 30/15 A3012 RMK A01 T03000150  RH  040%=      5-min Rain = 0
KVP1 211521Z 23015KT 30/15 A3012 RMK A01 T03000150  RH  040%=      5-min Rain = 0
KVP1 211522Z 23015KT 30/15 A3012 RMK A01 T02990150  RH  040%=      5-min Rain = 0
KVP1 211523Z 23016KT 30/15 A3012 RMK A01 T02980150  RH  041%=      5-min Rain = 0
KVP1 211524Z 24015KT 30/15 A3012 RMK A01 T02970150  RH  041%=      5-min Rain = 0
KVP1 211525Z 23015KT 30/15 A3012 RMK A01 T02970151  RH  041%=      5-min Rain = 0
KVP1 211526Z 23014KT 30/15 A3012 RMK A01 T02960150  RH  041%=      5-min Rain = 0
KVP1 211527Z 23014KT 30/15 A3012 RMK A01 T02960150  RH  041%=      5-min Rain = 0
KVP1 211528Z 22014KT 30/15 A3012 RMK A01 T02970150  RH  041%=      5-min Rain = 0
KVP1 211529Z 22014KT 30/15 A3012 RMK A01 T02970150  RH  041%=      5-min Rain = 0
KVP1 211530Z 22017KT 30/15 A3012 RMK A01 T02970150  RH  041%=      5-min Rain = 0
KVP1 211531Z 22014KT 30/15 A3012 RMK A01 T02970150  RH  041%=      5-min Rain = 0
KVP1 211532Z 22014KT 30/15 A3012 RMK A01 T02970150  RH  041%=      5-min Rain = 0
KVP1 211533Z 22015KT 30/15 A3012 RMK A01 T02970151  RH  041%=      5-min Rain = 0
KVP1 211534Z 22014KT 30/15 A3012 RMK A01 T02980151  RH  041%=      5-min Rain = 0
KVP1 211535Z 23015KT 30/15 A3012 RMK A01 T02980151  RH  041%=      5-min Rain = 0
KVP1 211536Z 23013KT 30/15 A3012 RMK A01 T03000151  RH  040%=      5-min Rain = 0
KVP1 211537Z 22015KT 30/15 A3012 RMK A01 T03020152  RH  040%=      5-min Rain = 0
KVP1 211538Z 23013KT 30/15 A3012 RMK A01 T03040153  RH  040%=      5-min Rain = 0
KVP1 211539Z 23014KT 31/16 A3012 RMK A01 T03090155  RH  039%=      5-min Rain = 0
KVP1 211540Z 23013KT 31/15 A3012 RMK A01 T03120153  RH  038%=      5-min Rain = 0
KVP1 211541Z 24015KT 31/16 A3012 RMK A01 T03120155  RH  039%=      5-min Rain = 0
KVP1 211542Z 24013KT 31/16 A3012 RMK A01 T03110156  RH  039%=      5-min Rain = 0
KVP1 211543Z 24014KT 31/16 A3012 RMK A01 T03140155  RH  038%=      5-min Rain = 0
KVP1 211544Z 24016KT 31/15 A3012 RMK A01 T03130153  RH  038%=      5-min Rain = 0
KVP1 211545Z 24015KT 31/15 A3012 RMK A01 T03100153  RH  039%=      5-min Rain = 0
KVP1 211546Z 23016KT 31/15 A3012 RMK A01 T03080153  RH  039%=      5-min Rain = 0
KVP1 211547Z 23016KT 31/15 A3012 RMK A01 T03090151  RH  039%=      5-min Rain = 0
KVP1 211548Z 23013KT 31/15 A3013 RMK A01 T03100153  RH  039%=      5-min Rain = 0
KVP1 211549Z 23017KT 31/15 A3013 RMK A01 T03120152  RH  038%=      5-min Rain = 0
KVP1 211550Z 24016KT 31/15 A3013 RMK A01 T03120152  RH  038%=      5-min Rain = 0
KVP1 211551Z 24016KT 31/15 A3013 RMK A01 T03110153  RH  039%=      5-min Rain = 0
KVP1 211552Z 23015KT 31/15 A3013 RMK A01 T03090153  RH  039%=      5-min Rain = 0
KVP1 211553Z 23014KT 31/15 A3013 RMK A01 T03060152  RH  039%=      5-min Rain = 0
KVP1 211554Z 24012KT 30/15 A3013 RMK A01 T03040152  RH  040%=      5-min Rain = 0
KVP1 211555Z 24015G20KT 30/16 A3013 RMK A01 T03040155  RH  040%=      5-min Rain = 0
KVP1 211556Z 24017KT 31/15 A3013 RMK A01 T03070154  RH  039%=      5-min Rain = 0
KVP1 211557Z 24014KT 31/16 A3013 RMK A01 T03070155  RH  040%=      5-min Rain = 0
KVP1 211558Z 24016KT 31/15 A3013 RMK A01 T03100153  RH  039%=      5-min Rain = 0
KVP1 211559Z 23013KT 31/15 A3013 RMK A01 T03110153  RH  039%=      5-min Rain = 0
KVP1 211600Z 23014KT 31/16 A3013 RMK A01 T03130155  RH  039%=      5-min Rain = 0
KVP1 211601Z 23013KT 31/16 A3013 RMK A01 T03140155  RH  038%=      5-min Rain = 0
KVP1 211602Z 24013KT 31/15 A3013 RMK A01 T03140154  RH  038%=      5-min Rain = 0
KVP1 211603Z 25013KT 31/16 A3013 RMK A01 T03140157  RH  039%=      5-min Rain = 0
KVP1 211604Z 24013KT 32/16 A3013 RMK A01 T03150156  RH  038%=      5-min Rain = 0
KVP1 211605Z 22013KT 32/16 A3013 RMK A01 T03160157  RH  038%=      5-min Rain = 0
KVP1 211606Z 22014KT 32/16 A3013 RMK A01 T03160155  RH  038%=      5-min Rain = 0
KVP1 211607Z 22016KT 32/15 A3013 RMK A01 T03160154  RH  038%=      5-min Rain = 0
KVP1 211608Z 21015KT 32/15 A3013 RMK A01 T03150154  RH  038%=      5-min Rain = 0
KVP1 211609Z 22016KT 32/15 A3013 RMK A01 T03150154  RH  038%=      5-min Rain = 0
KVP1 211610Z 22014KT 31/15 A3013 RMK A01 T03130154  RH  038%=      5-min Rain = 0
KVP1 211611Z 22013KT 31/15 A3013 RMK A01 T03130153  RH  038%=      5-min Rain = 0
KVP1 211612Z 22014KT 31/15 A3013 RMK A01 T03140154  RH  038%=      5-min Rain = 0
KVP1 211613Z 22014KT 31/16 A3013 RMK A01 T03140155  RH  038%=      5-min Rain = 0
KVP1 211614Z 22015KT 31/15 A3013 RMK A01 T03130154  RH  038%=      5-min Rain = 0
KVP1 211615Z 22012KT 31/15 A3013 RMK A01 T03120153  RH  038%=      5-min Rain = 0
KVP1 211616Z 21011KT 31/16 A3013 RMK A01 T03130155  RH  039%=      5-min Rain = 0
KVP1 211617Z 21014KT 32/15 A3013 RMK A01 T03160153  RH  037%=      5-min Rain = 0
KVP1 211618Z 24011KT 32/16 A3013 RMK A01 T03170155  RH  038%=      5-min Rain = 0
KVP1 211619Z 23010KT 32/16 A3013 RMK A01 T03150155  RH  038%=      5-min Rain = 0
KVP1 211620Z 22010KT 32/16 A3013 RMK A01 T03150157  RH  039%=      5-min Rain = 0
KVP1 211621Z 23013KT 32/16 A3013 RMK A01 T03200156  RH  037%=      5-min Rain = 0
KVP1 211622Z 23013KT 32/15 A3013 RMK A01 T03210153  RH  036%=      5-min Rain = 0
KVP1 211623Z 23011KT 32/15 A3013 RMK A01 T03190153  RH  037%=      5-min Rain = 0
KVP1 211624Z 24011KT 32/15 A3013 RMK A01 T03180154  RH  037%=      5-min Rain = 0
KVP1 211625Z 22010KT 32/16 A3013 RMK A01 T03170155  RH  038%=      5-min Rain = 0
KVP1 211626Z 22012KT 32/16 A3013 RMK A01 T03200155  RH  037%=      5-min Rain = 0
KVP1 211627Z 22010KT 32/16 A3013 RMK A01 T03220155  RH  037%=      5-min Rain = 0
KVP1 211628Z 23009G14KT 32/16 A3013 RMK A01 T03190155  RH  037%=      5-min Rain = 0
KVP1 211629Z 23012KT 32/16 A3013 RMK A01 T03210156  RH  037%=      5-min Rain = 0
KVP1 211630Z 22011KT 32/15 A3013 RMK A01 T03230154  RH  036%=      5-min Rain = 0
KVP1 211631Z 22012KT 32/16 A3013 RMK A01 T03220155  RH  037%=      5-min Rain = 0
KVP1 211632Z 22011KT 33/16 A3013 RMK A01 T03260155  RH  036%=      5-min Rain = 0
KVP1 211633Z 23010G16KT 33/16 A3013 RMK A01 T03260155  RH  036%=      5-min Rain = 0
KVP1 211634Z 24014KT 33/15 A3013 RMK A01 T03260153  RH  035%=      5-min Rain = 0
KVP1 211635Z 22014KT 32/15 A3013 RMK A01 T03210153  RH  036%=      5-min Rain = 0
KVP1 211636Z 21013KT 32/15 A3013 RMK A01 T03210151  RH  036%=      5-min Rain = 0
KVP1 211637Z 21015KT 32/15 A3013 RMK A01 T03210151  RH  036%=      5-min Rain = 0
KVP1 211638Z 21014KT 32/15 A3013 RMK A01 T03190151  RH  036%=      5-min Rain = 0
KVP1 211639Z 21013KT 32/15 A3013 RMK A01 T03210149  RH  035%=      5-min Rain = 0
KVP1 211640Z 21012KT 32/15 A3013 RMK A01 T03210152  RH  036%=      5-min Rain = 0
KVP1 211641Z 22014KT 32/15 A3013 RMK A01 T03210152  RH  036%=      5-min Rain = 0
KVP1 211642Z 21014KT 32/15 A3013 RMK A01 T03200151  RH  036%=      5-min Rain = 0
KVP1 211643Z 20012KT 32/15 A3013 RMK A01 T03210151  RH  036%=      5-min Rain = 0
KVP1 211644Z 20015KT 32/15 A3013 RMK A01 T03220153  RH  036%=      5-min Rain = 0
KVP1 211645Z 21013G18KT 32/15 A3013 RMK A01 T03230152  RH  036%=      5-min Rain = 0
KVP1 211646Z 22013KT 32/15 A3013 RMK A01 T03230152  RH  036%=      5-min Rain = 0
KVP1 211647Z 21012KT 32/15 A3013 RMK A01 T03230152  RH  036%=      5-min Rain = 0
KVP1 211648Z 22013KT 33/15 A3013 RMK A01 T03260152  RH  035%=      5-min Rain = 0
KVP1 211649Z 21012KT 33/15 A3013 RMK A01 T03270150  RH  035%=      5-min Rain = 0
KVP1 211650Z 22012KT 33/15 A3013 RMK A01 T03260152  RH  035%=      5-min Rain = 0
KVP1 211651Z 23012KT 33/15 A3013 RMK A01 T03250153  RH  036%=      5-min Rain = 0
KVP1 211652Z 24012KT 33/15 A3013 RMK A01 T03290154  RH  035%=      5-min Rain = 0
KVP1 211653Z 23009KT 33/15 A3013 RMK A01 T03320154  RH  034%=      5-min Rain = 0
KVP1 211654Z 20014KT 33/15 A3013 RMK A01 T03340154  RH  034%=      5-min Rain = 0
KVP1 211655Z 21015KT 33/15 A3013 RMK A01 T03330153  RH  034%=      5-min Rain = 0
KVP1 211656Z 22012KT 33/15 A3013 RMK A01 T03300151  RH  034%=      5-min Rain = 0
KVP1 211657Z 22010KT 33/15 A3013 RMK A01 T03280150  RH  034%=      5-min Rain = 0
KVP1 211658Z 21010KT 33/15 A3013 RMK A01 T03290150  RH  034%=      5-min Rain = 0
KVP1 211659Z 22011KT 33/15 A3012 RMK A01 T03320150  RH  033%=      5-min Rain = 0
KVP1 211700Z 23016KT 33/15 A3012 RMK A01 T03310152  RH  034%=      5-min Rain = 0
KVP1 211701Z 22012KT 33/15 A3012 RMK A01 T03290151  RH  034%=      5-min Rain = 0
KVP1 211702Z 22012KT 33/15 A3012 RMK A01 T03280151  RH  034%=      5-min Rain = 0
KVP1 211703Z 24013KT 33/15 A3012 RMK A01 T03300147  RH  033%=      5-min Rain = 0
KVP1 211704Z 24012KT 33/15 A3012 RMK A01 T03290146  RH  033%=      5-min Rain = 0
KVP1 211705Z 23015KT 33/15 A3012 RMK A01 T03290145  RH  033%=      5-min Rain = 0
KVP1 211706Z 21012G18KT 33/15 A3012 RMK A01 T03270146  RH  033%=      5-min Rain = 0
KVP1 211707Z 21013G18KT 33/15 A3012 RMK A01 T03290147  RH  033%=      5-min Rain = 0
KVP1 211708Z 20012KT 33/15 A3012 RMK A01 T03290148  RH  034%=      5-min Rain = 0
KVP1 211709Z 24013KT 33/15 A3012 RMK A01 T03340150  RH  033%=      5-min Rain = 0
KVP1 211710Z 24011KT 34/15 A3012 RMK A01 T03370150  RH  032%=      5-min Rain = 0
KVP1 211711Z 23011KT 34/15 A3012 RMK A01 T03350149  RH  033%=      5-min Rain = 0
KVP1 211712Z 23013KT 33/15 A3012 RMK A01 T03320149  RH  033%=      5-min Rain = 0
KVP1 211713Z 23011G16KT 33/15 A3012 RMK A01 T03320149  RH  033%=      5-min Rain = 0
KVP1 211714Z 21014KT 33/14 A3012 RMK A01 T03340140  RH  031%=      5-min Rain = 0
KVP1 211715Z 22012KT 33/14 A3012 RMK A01 T03340138  RH  031%=      5-min Rain = 0
KVP1 211716Z 23011KT 34/14 A3011 RMK A01 T03350135  RH  030%=      5-min Rain = 0
KVP1 211717Z 22011G20KT 33/14 A3011 RMK A01 T03320136  RH  031%=      5-min Rain = 0
KVP1 211718Z 21015KT 33/13 A3011 RMK A01 T03340134  RH  030%=      5-min Rain = 0
KVP1 211719Z 21014KT 33/13 A3011 RMK A01 T03320134  RH  030%=      5-min Rain = 0
KVP1 211720Z 23009G15KT 33/14 A3011 RMK A01 T03300137  RH  031%=      5-min Rain = 0
KVP1 211721Z 22014G19KT 33/14 A3011 RMK A01 T03320140  RH  032%=      5-min Rain = 0
KVP1 211722Z 22014KT 34/14 A3011 RMK A01 T03350140  RH  031%=      5-min Rain = 0
KVP1 211723Z 22017KT 34/14 A3011 RMK A01 T03350137  RH  030%=      5-min Rain = 0
KVP1 211724Z 22015KT 34/14 A3011 RMK A01 T03350135  RH  030%=      5-min Rain = 0
KVP1 211725Z 22012KT 34/13 A3011 RMK A01 T03370132  RH  029%=      5-min Rain = 0
KVP1 211726Z 21011KT 33/14 A3011 RMK A01 T03340136  RH  030%=      5-min Rain = 0
KVP1 211727Z 22010KT 33/14 A3011 RMK A01 T03300138  RH  031%=      5-min Rain = 0
KVP1 211728Z 21010KT 33/14 A3011 RMK A01 T03320139  RH  031%=      5-min Rain = 0
KVP1 211729Z 22013KT 34/14 A3011 RMK A01 T03380141  RH  031%=      5-min Rain = 0
KVP1 211730Z 23010G15KT 34/14 A3011 RMK A01 T03360140  RH  031%=      5-min Rain = 0
KVP1 211731Z 24010KT 34/14 A3011 RMK A01 T03350141  RH  031%=      5-min Rain = 0
KVP1 211732Z 24009KT 34/14 A3011 RMK A01 T03360141  RH  031%=      5-min Rain = 0
KVP1 211733Z 22011KT 34/14 A3011 RMK A01 T03420142  RH  030%=      5-min Rain = 0
KVP1 211734Z 21016KT 34/14 A3011 RMK A01 T03440139  RH  029%=      5-min Rain = 0
KVP1 211735Z 22012KT 34/14 A3011 RMK A01 T03400139  RH  030%=      5-min Rain = 0
KVP1 211736Z 20012G18KT 34/14 A3011 RMK A01 T03370140  RH  030%=      5-min Rain = 0
KVP1 211737Z 21012KT 34/14 A3011 RMK A01 T03370142  RH  031%=      5-min Rain = 0
KVP1 211738Z 23013KT 34/14 A301 RMK A01 T03390142  RH  031%=      5-min Rain = 0
KVP1 211739Z 22012KT 34/14 A301 RMK A01 T03390138  RH  030%=      5-min Rain = 0
KVP1 211740Z 23009KT 34/14 A301 RMK A01 T03350139  RH  031%=      5-min Rain = 0
KVP1 211741Z 23010KT 34/14 A301 RMK A01 T03370138  RH  030%=      5-min Rain = 0
KVP1 211742Z 23011KT 34/14 A301 RMK A01 T03370138  RH  030%=      5-min Rain = 0
KVP1 211743Z 23010KT 34/13 A301 RMK A01 T03360132  RH  029%=      5-min Rain = 0
KVP1 211744Z 23011G17KT 33/14 A301 RMK A01 T03330135  RH  030%=      5-min Rain = 0
KVP1 211745Z 23012KT 34/14 A301 RMK A01 T03370138  RH  030%=      5-min Rain = 0
KVP1 211746Z 24012KT 34/14 A301 RMK A01 T03400138  RH  030%=      5-min Rain = 0
KVP1 211747Z 23011KT 34/14 A301 RMK A01 T03400136  RH  029%=      5-min Rain = 0
KVP1 211748Z 24010KT 34/14 A301 RMK A01 T03380138  RH  030%=      5-min Rain = 0
KVP1 211749Z 23012KT 34/14 A301 RMK A01 T03400139  RH  030%=      5-min Rain = 0
KVP1 211750Z 23009KT 34/14 A301 RMK A01 T03380138  RH  030%=      5-min Rain = 0
KVP1 211751Z 21011KT 34/14 A301 RMK A01 T03400137  RH  030%=      5-min Rain = 0
KVP1 211752Z 21010KT 34/13 A301 RMK A01 T03410133  RH  028%=      5-min Rain = 0
KVP1 211753Z 20012KT 34/13 A301 RMK A01 T03420131  RH  028%=      5-min Rain = 0
KVP1 211754Z 20013KT 35/13 A301 RMK A01 T03450130  RH  027%=      5-min Rain = 0
KVP1 211755Z 19011KT 34/12 A301 RMK A01 T03430124  RH  027%=      5-min Rain = 0
KVP1 211756Z 17007KT 34/12 A301 RMK A01 T03400123  RH  027%=      5-min Rain = 0
KVP1 211757Z 20010G19KT 34/13 A301 RMK A01 T03410126  RH  027%=      5-min Rain = 0
KVP1 211758Z 22010KT 35/13 A301 RMK A01 T03450128  RH  027%=      5-min Rain = 0
KVP1 211759Z 22010KT 35/12 A301 RMK A01 T03470124  RH  026%=      5-min Rain = 0
KVP1 211800Z 22006KT 34/12 A301 RMK A01 T03440120  RH  026%=      5-min Rain = 0
KVP1 211801Z 21008KT 34/12 A301 RMK A01 T03400118  RH  026%=      5-min Rain = 0
KVP1 211802Z 21010G15KT 34/12 A301 RMK A01 T03400124  RH  027%=      5-min Rain = 0
KVP1 211803Z 20012KT 34/13 A301 RMK A01 T03430130  RH  028%=      5-min Rain = 0
KVP1 211804Z 18009KT 34/13 A301 RMK A01 T03430129  RH  027%=      5-min Rain = 0
KVP1 211805Z 21010KT 34/13 A301 RMK A01 T03420130  RH  028%=      5-min Rain = 0
KVP1 211806Z 21011KT 34/13 A301 RMK A01 T03440128  RH  027%=      5-min Rain = 0
KVP1 211807Z 22009KT 35/12 A301 RMK A01 T03450121  RH  026%=      5-min Rain = 0
KVP1 211808Z 23008G13KT 35/12 A301 RMK A01 T03450116  RH  025%=      5-min Rain = 0
KVP1 211809Z 25006KT 34/11 A301 RMK A01 T03440114  RH  025%=      5-min Rain = 0
KVP1 211810Z 25006KT 34/12 A301 RMK A01 T03420117  RH  026%=      5-min Rain = 0
KVP1 211811Z 25003KT 34/12 A3009 RMK A01 T03370116  RH  026%=      5-min Rain = 0
KVP1 211812Z 22007G15KT 34/12 A3009 RMK A01 T03350117  RH  027%=      5-min Rain = 0
KVP1 211813Z 22014KT 34/13 A3009 RMK A01 T03410125  RH  027%=      5-min Rain = 0
KVP1 211814Z 22012KT 35/13 A3009 RMK A01 T03450128  RH  027%=      5-min Rain = 0
KVP1 211815Z 23010KT 35/13 A3009 RMK A01 T03450130  RH  027%=      5-min Rain = 0
KVP1 211816Z 23014KT 34/13 A3009 RMK A01 T03430129  RH  027%=      5-min Rain = 0
KVP1 211817Z 23013KT 34/13 A3009 RMK A01 T03410126  RH  027%=      5-min Rain = 0
KVP1 211818Z 23011KT 34/13 A3009 RMK A01 T03420126  RH  027%=      5-min Rain = 0
KVP1 211819Z 25008KT 34/13 A3009 RMK A01 T03420126  RH  027%=      5-min Rain = 0
KVP1 211820Z 24008KT 34/12 A3009 RMK A01 T03430124  RH  027%=      5-min Rain = 0
KVP1 211821Z 25009KT 34/12 A3009 RMK A01 T03440123  RH  026%=      5-min Rain = 0
KVP1 211822Z 25008KT 34/13 A3009 RMK A01 T03440126  RH  027%=      5-min Rain = 0
KVP1 211823Z 27007G12KT 35/13 A3009 RMK A01 T03460125  RH  026%=      5-min Rain = 0
KVP1 211824Z 27008KT 34/13 A3009 RMK A01 T03440125  RH  027%=      5-min Rain = 0
KVP1 211825Z 22010KT 34/13 A3009 RMK A01 T03440130  RH  027%=      5-min Rain = 0
KVP1 211826Z 19009KT 35/13 A3009 RMK A01 T03470127  RH  027%=      5-min Rain = 0
KVP1 211827Z 22010KT 35/13 A3009 RMK A01 T03490129  RH  026%=      5-min Rain = 0
KVP1 211828Z 26011KT 35/13 A3009 RMK A01 T03500127  RH  026%=      5-min Rain = 0
KVP1 211829Z 25008KT 35/13 A3009 RMK A01 T03450127  RH  027%=      5-min Rain = 0
KVP1 211830Z 23012KT 35/13 A3009 RMK A01 T03470132  RH  027%=      5-min Rain = 0
KVP1 211831Z 23013KT 35/13 A3009 RMK A01 T03500133  RH  027%=      5-min Rain = 0
KVP1 211832Z 23011KT 35/13 A3009 RMK A01 T03490133  RH  027%=      5-min Rain = 0
KVP1 211833Z 23010KT 35/13 A3009 RMK A01 T03470133  RH  027%=      5-min Rain = 0
KVP1 211834Z 21009KT 35/13 A3009 RMK A01 T03450131  RH  028%=      5-min Rain = 0
KVP1 211835Z 18008G13KT 34/13 A3009 RMK A01 T03410132  RH  028%=      5-min Rain = 0
KVP1 211836Z 18008KT 34/13 A3009 RMK A01 T03400130  RH  028%=      5-min Rain = 0
KVP1 211837Z 18010G15KT 34/13 A3009 RMK A01 T03390129  RH  028%=      5-min Rain = 0
KVP1 211838Z 18012KT 34/13 A3008 RMK A01 T03430125  RH  027%=      5-min Rain = 0
KVP1 211839Z 20010KT 35/13 A3008 RMK A01 T03460129  RH  027%=      5-min Rain = 0
KVP1 211840Z 21010KT 35/13 A3008 RMK A01 T03470133  RH  028%=      5-min Rain = 0
KVP1 211841Z 21007KT 34/13 A3008 RMK A01 T03420133  RH  028%=      5-min Rain = 0
KVP1 211842Z 22008KT 34/13 A3008 RMK A01 T03420134  RH  029%=      5-min Rain = 0
KVP1 211843Z 18008KT 35/13 A3008 RMK A01 T03480126  RH  026%=      5-min Rain = 0
KVP1 211844Z 20012KT 35/13 A3008 RMK A01 T03520126  RH  026%=      5-min Rain = 0
KVP1 211845Z 20010KT 35/13 A3008 RMK A01 T03530128  RH  026%=      5-min Rain = 0
KVP1 211846Z 19013KT 36/12 A3008 RMK A01 T03550122  RH  025%=      5-min Rain = 0
KVP1 211847Z 19012KT 36/12 A3008 RMK A01 T03560118  RH  024%=      5-min Rain = 0
KVP1 211848Z 21008KT 35/12 A3008 RMK A01 T03530118  RH  024%=      5-min Rain = 0
KVP1 211849Z 19010KT 35/12 A3008 RMK A01 T03510115  RH  024%=      5-min Rain = 0
KVP1 211850Z 21009G15KT 35/12 A3008 RMK A01 T03510115  RH  024%=      5-min Rain = 0
KVP1 211851Z 20010KT 35/11 A3008 RMK A01 T03530113  RH  023%=      5-min Rain = 0
KVP1 211852Z 19007KT 35/11 A3008 RMK A01 T03480113  RH  024%=      5-min Rain = 0
KVP1 211853Z 19006KT 35/11 A3008 RMK A01 T03450114  RH  025%=      5-min Rain = 0
KVP1 211854Z 20010G15KT 35/12 A3008 RMK A01 T03470119  RH  025%=      5-min Rain = 0
KVP1 211855Z 20011KT 35/12 A3008 RMK A01 T03490118  RH  025%=      5-min Rain = 0
KVP1 211856Z 20013KT 35/12 A3008 RMK A01 T03500118  RH  024%=      5-min Rain = 0
KVP1 211857Z 19011KT 35/12 A3008 RMK A01 T03530115  RH  024%=      5-min Rain = 0
KVP1 211858Z 19011KT 35/12 A3008 RMK A01 T03510115  RH  024%=      5-min Rain = 0
KVP1 211859Z 22010KT 35/12 A3008 RMK A01 T03520120  RH  025%=      5-min Rain = 0
KVP1 211900Z 21011KT 36/12 A3008 RMK A01 T03560122  RH  024%=      5-min Rain = 0
KVP1 211901Z 21010KT 36/12 A3008 RMK A01 T03580119  RH  024%=      5-min Rain = 0
KVP1 211902Z 24007KT 35/11 A3008 RMK A01 T03530112  RH  023%=      5-min Rain = 0
KVP1 211903Z 25006KT 35/11 A3008 RMK A01 T03470110  RH  024%=      5-min Rain = 0
KVP1 211904Z 21004KT 35/11 A3008 RMK A01 T03450111  RH  024%=      5-min Rain = 0
KVP1 211905Z 21004KT 35/11 A3008 RMK A01 T03450108  RH  024%=      5-min Rain = 0
KVP1 211906Z 20004KT 35/11 A3008 RMK A01 T03450107  RH  023%=      5-min Rain = 0
KVP1 211907Z 22007KT 35/11 A3008 RMK A01 T03450107  RH  023%=      5-min Rain = 0
KVP1 211908Z 21005KT 34/11 A3008 RMK A01 T03440107  RH  024%=      5-min Rain = 0
KVP1 211909Z 20013KT 35/11 A3008 RMK A01 T03460114  RH  025%=      5-min Rain = 0
KVP1 211910Z 20011G16KT 35/12 A3008 RMK A01 T03500116  RH  024%=      5-min Rain = 0
KVP1 211911Z 20013G19KT 35/12 A3008 RMK A01 T03490117  RH  024%=      5-min Rain = 0
KVP1 211912Z 20012KT 35/12 A3008 RMK A01 T03490118  RH  025%=      5-min Rain = 0
KVP1 211913Z 20011G17KT 35/12 A3008 RMK A01 T03480119  RH  025%=      5-min Rain = 0
KVP1 211914Z 20010KT 35/12 A3008 RMK A01 T03470116  RH  025%=      5-min Rain = 0
KVP1 211915Z 19009KT 35/12 A3008 RMK A01 T03450117  RH  025%=      5-min Rain = 0
KVP1 211916Z 22007KT 35/12 A3007 RMK A01 T03460119  RH  025%=      5-min Rain = 0
KVP1 211917Z 21010KT 35/12 A3007 RMK A01 T03490119  RH  025%=      5-min Rain = 0
KVP1 211918Z 22008KT 35/12 A3007 RMK A01 T03480121  RH  025%=      5-min Rain = 0
KVP1 211919Z 26007KT 35/12 A3007 RMK A01 T03520120  RH  025%=      5-min Rain = 0
KVP1 211920Z 22006KT 35/12 A3007 RMK A01 T03520120  RH  025%=      5-min Rain = 0
KVP1 211921Z 20005KT 35/12 A3007 RMK A01 T03510120  RH  025%=      5-min Rain = 0
KVP1 211922Z 22006KT 35/12 A3007 RMK A01 T03490119  RH  025%=      5-min Rain = 0
KVP1 211923Z 24006KT 35/12 A3007 RMK A01 T03500116  RH  024%=      5-min Rain = 0
KVP1 211924Z 23008KT 35/11 A3007 RMK A01 T03500114  RH  024%=      5-min Rain = 0
KVP1 211925Z 21010KT 35/12 A3007 RMK A01 T03500115  RH  024%=      5-min Rain = 0
KVP1 211926Z 20009G15KT 35/12 A3007 RMK A01 T03500122  RH  025%=      5-min Rain = 0
KVP1 211927Z 20013KT 36/12 A3007 RMK A01 T03550121  RH  024%=      5-min Rain = 0
KVP1 211928Z 18010KT 35/12 A3007 RMK A01 T03540118  RH  024%=      5-min Rain = 0
KVP1 211929Z 18009KT 35/12 A3007 RMK A01 T03510118  RH  024%=      5-min Rain = 0
KVP1 211930Z 20012KT 35/12 A3007 RMK A01 T03490122  RH  025%=      5-min Rain = 0
KVP1 211931Z 19009G14KT 35/12 A3007 RMK A01 T03490120  RH  025%=      5-min Rain = 0
KVP1 211932Z 19004KT 35/12 A3007 RMK A01 T03500119  RH  025%=      5-min Rain = 0
KVP1 211933Z 17005KT 35/12 A3007 RMK A01 T03490120  RH  025%=      5-min Rain = 0
KVP1 211934Z 18010KT 35/12 A3007 RMK A01 T03500124  RH  026%=      5-min Rain = 0
KVP1 211935Z 19009KT 35/12 A3007 RMK A01 T03510123  RH  025%=      5-min Rain = 0
KVP1 211936Z 19011KT 35/12 A3007 RMK A01 T03480124  RH  026%=      5-min Rain = 0
KVP1 211937Z 18012KT 35/12 A3006 RMK A01 T03480124  RH  026%=      5-min Rain = 0
KVP1 211938Z 20013KT 35/13 A3006 RMK A01 T03510125  RH  026%=      5-min Rain = 0
KVP1 211939Z 22007KT 35/12 A3007 RMK A01 T03510122  RH  025%=      5-min Rain = 0
KVP1 211940Z 23006KT 35/12 A3006 RMK A01 T03490121  RH  025%=      5-min Rain = 0
KVP1 211941Z 23005KT 35/12 A3006 RMK A01 T03490121  RH  025%=      5-min Rain = 0
KVP1 211942Z 19005KT 35/12 A3007 RMK A01 T03490123  RH  025%=      5-min Rain = 0
KVP1 211943Z 17010KT 35/13 A3006 RMK A01 T03510125  RH  026%=      5-min Rain = 0
KVP1 211944Z 18009G14KT 35/13 A3006 RMK A01 T03510125  RH  026%=      5-min Rain = 0
KVP1 211945Z 17010KT 35/13 A3006 RMK A01 T03480125  RH  026%=      5-min Rain = 0
KVP1 211946Z 18014KT 35/13 A3006 RMK A01 T03510125  RH  026%=      5-min Rain = 0
KVP1 211947Z 18012KT 35/12 A3006 RMK A01 T03510122  RH  025%=      5-min Rain = 0
KVP1 211948Z 17009KT 35/12 A3006 RMK A01 T03490122  RH  025%=      5-min Rain = 0
KVP1 211949Z 16009KT 35/12 A3006 RMK A01 T03490122  RH  025%=      5-min Rain = 0
KVP1 211950Z 15008KT 35/12 A3006 RMK A01 T03490122  RH  026%=      5-min Rain = 0
KVP1 211951Z 14008KT 35/12 A3006 RMK A01 T03460121  RH  026%=      5-min Rain = 0
KVP1 211952Z 16006KT 34/12 A3006 RMK A01 T03420120  RH  026%=      5-min Rain = 0
KVP1 211953Z 20007KT 34/12 A3006 RMK A01 T03410120  RH  026%=      5-min Rain = 0
KVP1 211954Z 20010KT 34/12 A3006 RMK A01 T03400120  RH  026%=      5-min Rain = 0
KVP1 211955Z 17007KT 34/12 A3006 RMK A01 T03430121  RH  026%=      5-min Rain = 0
KVP1 211956Z 20011KT 34/12 A3006 RMK A01 T03440121  RH  026%=      5-min Rain = 0
KVP1 211957Z 21010KT 35/12 A3006 RMK A01 T03450120  RH  026%=      5-min Rain = 0
KVP1 211958Z 22012KT 35/12 A3006 RMK A01 T03480124  RH  026%=      5-min Rain = 0
KVP1 211959Z 22012KT 35/12 A3006 RMK A01 T03470124  RH  026%=      5-min Rain = 0
KVP1 212000Z 23009KT 34/12 A3006 RMK A01 T03440123  RH  026%=      5-min Rain = 0
KVP1 212001Z 22014KT 34/13 A3006 RMK A01 T03440125  RH  027%=      5-min Rain = 0
KVP1 212002Z 22012KT 35/13 A3006 RMK A01 T03460125  RH  026%=      5-min Rain = 0
KVP1 212003Z 24013KT 35/12 A3006 RMK A01 T03490123  RH  026%=      5-min Rain = 0
KVP1 212004Z 23013KT 35/12 A3006 RMK A01 T03500122  RH  025%=      5-min Rain = 0
KVP1 212005Z 22010KT 35/12 A3006 RMK A01 T03470122  RH  026%=      5-min Rain = 0
KVP1 212006Z 24009KT 35/12 A3006 RMK A01 T03450121  RH  026%=      5-min Rain = 0
KVP1 212007Z 23009KT 34/12 A3006 RMK A01 T03440123  RH  026%=      5-min Rain = 0
KVP1 212008Z 23013KT 34/12 A3005 RMK A01 T03440123  RH  026%=      5-min Rain = 0
KVP1 212009Z 23009KT 34/12 A3005 RMK A01 T03420122  RH  026%=      5-min Rain = 0
KVP1 212010Z 24009KT 34/12 A3005 RMK A01 T03400123  RH  027%=      5-min Rain = 0
KVP1 212011Z 24010KT 34/12 A3005 RMK A01 T03410124  RH  027%=      5-min Rain = 0
KVP1 212012Z 24008G13KT 34/12 A3005 RMK A01 T03410123  RH  027%=      5-min Rain = 0
KVP1 212013Z 23007KT 34/12 A3005 RMK A01 T03410124  RH  027%=      5-min Rain = 0
KVP1 212014Z 23007KT 34/13 A3005 RMK A01 T03420126  RH  027%=      5-min Rain = 0
KVP1 212015Z 22007KT 35/12 A3005 RMK A01 T03450122  RH  026%=      5-min Rain = 0
KVP1 212016Z 23004KT 35/12 A3005 RMK A01 T03490122  RH  025%=      5-min Rain = 0
KVP1 212017Z 13006G12KT 35/12 A3005 RMK A01 T03490120  RH  025%=      5-min Rain = 0
KVP1 212018Z 15009KT 35/12 A3005 RMK A01 T03470115  RH  025%=      5-min Rain = 0
KVP1 212019Z 16008KT 35/12 A3005 RMK A01 T03450115  RH  025%=      5-min Rain = 0
KVP1 212020Z 18012KT 35/12 A3005 RMK A01 T03480116  RH  025%=      5-min Rain = 0
KVP1 212021Z 17011KT 35/12 A3005 RMK A01 T03490115  RH  024%=      5-min Rain = 0
KVP1 212022Z 18012KT 35/12 A3005 RMK A01 T03500117  RH  024%=      5-min Rain = 0
KVP1 212023Z 20011KT 35/12 A3005 RMK A01 T03510116  RH  024%=      5-min Rain = 0
KVP1 212024Z 21012KT 35/11 A3005 RMK A01 T03500113  RH  024%=      5-min Rain = 0
KVP1 212025Z 20011KT 35/11 A3005 RMK A01 T03470112  RH  024%=      5-min Rain = 0
KVP1 212026Z 20007KT 35/11 A3005 RMK A01 T03460111  RH  024%=      5-min Rain = 0
KVP1 212027Z 21004KT 34/11 A3005 RMK A01 T03440111  RH  024%=      5-min Rain = 0
KVP1 212028Z 20006KT 35/11 A3005 RMK A01 T03450112  RH  024%=      5-min Rain = 0
KVP1 212029Z 19005KT 35/11 A3005 RMK A01 T03460113  RH  024%=      5-min Rain = 0
KVP1 212030Z 17008KT 35/12 A3005 RMK A01 T03490115  RH  024%=      5-min Rain = 0
KVP1 212031Z 15007KT 35/11 A3005 RMK A01 T03510114  RH  024%=      5-min Rain = 0
KVP1 212032Z 17004KT 35/11 A3004 RMK A01 T03480112  RH  024%=      5-min Rain = 0
KVP1 212033Z 15003KT 35/11 A3004 RMK A01 T03460112  RH  024%=      5-min Rain = 0
KVP1 212034Z 19003G8KT 35/11 A3004 RMK A01 T03450111  RH  024%=      5-min Rain = 0
KVP1 212035Z 23007KT 34/12 A3004 RMK A01 T03440115  RH  025%=      5-min Rain = 0
KVP1 212036Z 24004KT 34/12 A3004 RMK A01 T03420115  RH  025%=      5-min Rain = 0
KVP1 212037Z 23005KT 34/12 A3004 RMK A01 T03410115  RH  025%=      5-min Rain = 0
KVP1 212038Z 19007KT 35/12 A3004 RMK A01 T03450117  RH  025%=      5-min Rain = 0
KVP1 212039Z 17006KT 35/12 A3004 RMK A01 T03480118  RH  025%=      5-min Rain = 0
KVP1 212040Z 15004KT 35/12 A3004 RMK A01 T03490119  RH  025%=      5-min Rain = 0
KVP1 212041Z 16002KT 35/12 A3004 RMK A01 T03520118  RH  024%=      5-min Rain = 0
KVP1 212042Z 21005G12KT 35/12 A3004 RMK A01 T03530119  RH  024%=      5-min Rain = 0
KVP1 212043Z 21011KT 35/12 A3004 RMK A01 T03540119  RH  024%=      5-min Rain = 0
KVP1 212044Z 21011KT 36/12 A3004 RMK A01 T03550119  RH  024%=      5-min Rain = 0
KVP1 212045Z 20009KT 36/12 A3004 RMK A01 T03560120  RH  024%=      5-min Rain = 0
KVP1 212046Z 17009KT 36/12 A3003 RMK A01 T03580120  RH  024%=      5-min Rain = 0
KVP1 212047Z 17008KT 36/12 A3003 RMK A01 T03590120  RH  024%=      5-min Rain = 0
KVP1 212048Z 16008KT 36/12 A3003 RMK A01 T03600119  RH  023%=      5-min Rain = 0
KVP1 212049Z 15006KT 36/12 A3003 RMK A01 T03560117  RH  024%=      5-min Rain = 0
KVP1 212050Z 14006KT 35/12 A3003 RMK A01 T03540115  RH  024%=      5-min Rain = 0
KVP1 212051Z 15004KT 35/12 A3003 RMK A01 T03520116  RH  024%=      5-min Rain = 0
KVP1 212052Z 21005KT 35/12 A3003 RMK A01 T03520117  RH  024%=      5-min Rain = 0
KVP1 212053Z 20003KT 35/12 A3003 RMK A01 T03540118  RH  024%=      5-min Rain = 0
KVP1 212054Z 19003KT 36/12 A3003 RMK A01 T03550119  RH  024%=      5-min Rain = 0
KVP1 212055Z 23005KT 36/12 A3003 RMK A01 T03590119  RH  024%=      5-min Rain = 0
KVP1 212056Z 19008KT 36/12 A3003 RMK A01 T03620119  RH  023%=      5-min Rain = 0
KVP1 212057Z 16013KT 37/12 A3003 RMK A01 T03660122  RH  023%=      5-min Rain = 0
KVP1 212058Z 17011KT 36/12 A3003 RMK A01 T03630120  RH  023%=      5-min Rain = 0
KVP1 212059Z 18011KT 36/12 A3003 RMK A01 T03610122  RH  024%=      5-min Rain = 0
KVP1 212100Z 17012KT 36/12 A3003 RMK A01 T03600122  RH  024%=      5-min Rain = 0
KVP1 212101Z 17008KT 36/12 A3003 RMK A01 T03600120  RH  024%=      5-min Rain = 0
KVP1 212102Z 15007KT 36/12 A3002 RMK A01 T03550119  RH  024%=      5-min Rain = 0
KVP1 212103Z 16011KT 36/12 A3002 RMK A01 T03550121  RH  024%=      5-min Rain = 0
KVP1 212104Z 16012KT 36/12 A3002 RMK A01 T03570120  RH  024%=      5-min Rain = 0
KVP1 212105Z 16008KT 36/12 A3002 RMK A01 T03580118  RH  023%=      5-min Rain = 0
KVP1 212106Z 16014KT 36/12 A3002 RMK A01 T03570118  RH  024%=      5-min Rain = 0
KVP1 212107Z 16017G22KT 36/12 A3002 RMK A01 T03600120  RH  024%=      5-min Rain = 0
KVP1 212108Z 14010KT 36/12 A3002 RMK A01 T03580117  RH  023%=      5-min Rain = 0
KVP1 212109Z 15006KT 36/12 A3002 RMK A01 T03560117  RH  024%=      5-min Rain = 0
KVP1 212110Z 17009G15KT 36/12 A3002 RMK A01 T03560118  RH  024%=      5-min Rain = 0
KVP1 212111Z 19012KT 36/12 A3002 RMK A01 T03580117  RH  023%=      5-min Rain = 0
KVP1 212112Z 17008KT 36/12 A3002 RMK A01 T03610118  RH  023%=      5-min Rain = 0
KVP1 212113Z 16008KT 37/12 A3002 RMK A01 T03650116  RH  022%=      5-min Rain = 0
KVP1 212114Z 16010KT 36/12 A3002 RMK A01 T03640117  RH  023%=      5-min Rain = 0
KVP1 212115Z 18013KT 36/12 A3002 RMK A01 T03630120  RH  023%=      5-min Rain = 0
KVP1 212116Z 17011KT 36/12 A3002 RMK A01 T03640118  RH  023%=      5-min Rain = 0
KVP1 212117Z 16008KT 36/12 A3001 RMK A01 T03600116  RH  023%=      5-min Rain = 0
KVP1 212118Z 18009KT 36/12 A3001 RMK A01 T03590116  RH  023%=      5-min Rain = 0
KVP1 212119Z 17011KT 36/12 A3001 RMK A01 T03590118  RH  023%=      5-min Rain = 0
KVP1 212120Z 20014KT 36/12 A3001 RMK A01 T03620117  RH  023%=      5-min Rain = 0
KVP1 212121Z 21014KT 36/12 A3001 RMK A01 T03620117  RH  023%=      5-min Rain = 0
KVP1 212122Z 21009G14KT 36/11 A3001 RMK A01 T03590112  RH  023%=      5-min Rain = 0
KVP1 212123Z 20011KT 36/11 A3001 RMK A01 T03560113  RH  023%=      5-min Rain = 0
KVP1 212124Z 19010KT 36/11 A3001 RMK A01 T03560112  RH  023%=      5-min Rain = 0
KVP1 212125Z 19010KT 36/11 A3001 RMK A01 T03550112  RH  023%=      5-min Rain = 0
KVP1 212126Z 19008KT 35/11 A3001 RMK A01 T03530111  RH  023%=      5-min Rain = 0
KVP1 212127Z 20007KT 35/11 A3001 RMK A01 T03530111  RH  023%=      5-min Rain = 0
KVP1 212128Z 21003KT 35/11 A3001 RMK A01 T03530109  RH  023%=      5-min Rain = 0
KVP1 212129Z 22003KT 35/11 A3001 RMK A01 T03540108  RH  022%=      5-min Rain = 0
KVP1 212130Z 30003KT 35/11 A3001 RMK A01 T03540110  RH  023%=      5-min Rain = 0
KVP1 212131Z 29003KT 35/11 A30 RMK A01 T03510106  RH  023%=      5-min Rain = 0
KVP1 212132Z 16003G9KT 35/11 A3001 RMK A01 T03500107  RH  023%=      5-min Rain = 0
KVP1 212133Z 19009G15KT 35/11 A3001 RMK A01 T03530112  RH  023%=      5-min Rain = 0
KVP1 212134Z 18013G18KT 36/12 A30 RMK A01 T03590120  RH  024%=      5-min Rain = 0
KVP1 212135Z 17014KT 36/12 A30 RMK A01 T03620120  RH  023%=      5-min Rain = 0
KVP1 212136Z 17014KT 36/12 A3001 RMK A01 T03610119  RH  023%=      5-min Rain = 0
KVP1 212137Z 17010KT 36/12 A3001 RMK A01 T03590118  RH  023%=      5-min Rain = 0
KVP1 212138Z 19009KT 36/12 A30 RMK A01 T03560117  RH  024%=      5-min Rain = 0
KVP1 212139Z 17011KT 36/12 A30 RMK A01 T03550118  RH  024%=      5-min Rain = 0
KVP1 212140Z 15010KT 36/12 A30 RMK A01 T03570117  RH  024%=      5-min Rain = 0
KVP1 212141Z 14007KT 36/12 A30 RMK A01 T03570118  RH  024%=      5-min Rain = 0
KVP1 212142Z 15009KT 36/12 A30 RMK A01 T03580118  RH  024%=      5-min Rain = 0
KVP1 212143Z 15006KT 36/12 A30 RMK A01 T03570116  RH  023%=      5-min Rain = 0
KVP1 212144Z 18008KT 36/12 A30 RMK A01 T03550116  RH  024%=      5-min Rain = 0
KVP1 212145Z 18006KT 36/12 A30 RMK A01 T03560115  RH  023%=      5-min Rain = 0
KVP1 212146Z 18010KT 36/12 A30 RMK A01 T03560119  RH  024%=      5-min Rain = 0
KVP1 212147Z 17009KT 36/12 A30 RMK A01 T03560119  RH  024%=      5-min Rain = 0
KVP1 212148Z 17009G15KT 36/12 A30 RMK A01 T03570119  RH  024%=      5-min Rain = 0
KVP1 212149Z 16013KT 36/12 A30 RMK A01 T03570121  RH  024%=      5-min Rain = 0
KVP1 212150Z 17015KT 36/12 A30 RMK A01 T03590121  RH  024%=      5-min Rain = 0
KVP1 212151Z 16014KT 36/12 A30 RMK A01 T03580121  RH  024%=      5-min Rain = 0
KVP1 212152Z 15014KT 36/12 A30 RMK A01 T03610121  RH  024%=      5-min Rain = 0
KVP1 212153Z 16012KT 36/12 A30 RMK A01 T03610119  RH  023%=      5-min Rain = 0
KVP1 212154Z 18010KT 36/12 A30 RMK A01 T03580120  RH  024%=      5-min Rain = 0
KVP1 212155Z 18009KT 36/12 A30 RMK A01 T03600120  RH  024%=      5-min Rain = 0
KVP1 212156Z 19013KT 36/12 A30 RMK A01 T03630121  RH  023%=      5-min Rain = 0
KVP1 212157Z 18012KT 36/12 A30 RMK A01 T03640119  RH  023%=      5-min Rain = 0
KVP1 212158Z 19012KT 36/12 A30 RMK A01 T03610117  RH  023%=      5-min Rain = 0
KVP1 212159Z 20012KT 36/12 A30 RMK A01 T03610118  RH  023%=      5-min Rain = 0
KVP1 212200Z 18010KT 36/12 A30 RMK A01 T03600117  RH  023%=      5-min Rain = 0
KVP1 212201Z 17010KT 36/12 A30 RMK A01 T03570117  RH  023%=      5-min Rain = 0
KVP1 212202Z 16007KT 36/12 A30 RMK A01 T03570119  RH  024%=      5-min Rain = 0
KVP1 212203Z 14008KT 36/12 A30 RMK A01 T03600120  RH  023%=      5-min Rain = 0
KVP1 212204Z 17015KT 36/12 A30 RMK A01 T03600123  RH  024%=      5-min Rain = 0
KVP1 212205Z 18015KT 36/12 A30 RMK A01 T03610118  RH  023%=      5-min Rain = 0
KVP1 212206Z 18013KT 36/12 A30 RMK A01 T03580120  RH  024%=      5-min Rain = 0
KVP1 212207Z 17020KT 36/12 A2999 RMK A01 T03560122  RH  024%=      5-min Rain = 0
KVP1 212208Z 16016KT 36/12 A2999 RMK A01 T03560122  RH  024%=      5-min Rain = 0
KVP1 212209Z 16014KT 36/12 A30 RMK A01 T03560122  RH  024%=      5-min Rain = 0
KVP1 212210Z 19011KT 36/12 A2999 RMK A01 T03560122  RH  024%=      5-min Rain = 0
KVP1 212211Z 19012KT 36/12 A2999 RMK A01 T03570121  RH  024%=      5-min Rain = 0
KVP1 212212Z 20008KT 36/12 A2999 RMK A01 T03570121  RH  024%=      5-min Rain = 0
KVP1 212213Z 19008KT 36/12 A2999 RMK A01 T03560122  RH  024%=      5-min Rain = 0
KVP1 212214Z 18007KT 35/12 A2999 RMK A01 T03540120  RH  024%=      5-min Rain = 0
KVP1 212215Z 19009KT 35/12 A2999 RMK A01 T03510121  RH  025%=      5-min Rain = 0
KVP1 212216Z 18010G15KT 35/12 A2999 RMK A01 T03540122  RH  025%=      5-min Rain = 0
KVP1 212217Z 18015KT 36/12 A2999 RMK A01 T03560122  RH  024%=      5-min Rain = 0
KVP1 212218Z 17012KT 36/12 A2999 RMK A01 T03580121  RH  024%=      5-min Rain = 0
KVP1 212219Z 16008KT 36/12 A2999 RMK A01 T03580122  RH  024%=      5-min Rain = 0
KVP1 212220Z 16011KT 36/13 A2999 RMK A01 T03610127  RH  025%=      5-min Rain = 0
KVP1 212221Z 18014KT 36/12 A2999 RMK A01 T03600122  RH  024%=      5-min Rain = 0
KVP1 212222Z 18013KT 36/12 A2999 RMK A01 T03570118  RH  024%=      5-min Rain = 0
KVP1 212223Z 18013KT 36/12 A2999 RMK A01 T03550118  RH  024%=      5-min Rain = 0
KVP1 212224Z 18010KT 35/12 A2999 RMK A01 T03530116  RH  024%=      5-min Rain = 0
KVP1 212225Z 17010KT 35/12 A2999 RMK A01 T03530116  RH  024%=      5-min Rain = 0
KVP1 212226Z 16010KT 35/12 A2999 RMK A01 T03530119  RH  024%=      5-min Rain = 0
KVP1 212227Z 18014G19KT 35/12 A2999 RMK A01 T03520121  RH  025%=      5-min Rain = 0
KVP1 212228Z 17012G18KT 36/13 A2999 RMK A01 T03550125  RH  025%=      5-min Rain = 0
KVP1 212229Z 17015KT 36/12 A2999 RMK A01 T03570124  RH  025%=      5-min Rain = 0
KVP1 212230Z 16015KT 35/12 A2999 RMK A01 T03530122  RH  025%=      5-min Rain = 0
KVP1 212231Z 17011KT 35/12 A2999 RMK A01 T03520123  RH  025%=      5-min Rain = 0
KVP1 212232Z 17014KT 36/12 A2999 RMK A01 T03550124  RH  025%=      5-min Rain = 0
KVP1 212233Z 16014KT 36/12 A2999 RMK A01 T03580122  RH  024%=      5-min Rain = 0
KVP1 212234Z 15011KT 36/12 A2999 RMK A01 T03550120  RH  024%=      5-min Rain = 0
KVP1 212235Z 15011KT 35/12 A2999 RMK A01 T03520121  RH  025%=      5-min Rain = 0
KVP1 212236Z 16009KT 35/12 A2999 RMK A01 T03530121  RH  025%=      5-min Rain = 0
KVP1 212237Z 17011KT 35/12 A2999 RMK A01 T03540123  RH  025%=      5-min Rain = 0
KVP1 212238Z 14013KT 35/12 A2999 RMK A01 T03540123  RH  025%=      5-min Rain = 0
KVP1 212239Z 15011KT 35/12 A2999 RMK A01 T03540120  RH  024%=      5-min Rain = 0
KVP1 212240Z 15012KT 35/12 A2999 RMK A01 T03530120  RH  025%=      5-min Rain = 0
KVP1 212241Z 16012KT 35/12 A2999 RMK A01 T03520119  RH  024%=      5-min Rain = 0
KVP1 212242Z 17014KT 35/12 A2999 RMK A01 T03510120  RH  025%=      5-min Rain = 0
KVP1 212243Z 18014KT 35/12 A2999 RMK A01 T03500118  RH  025%=      5-min Rain = 0
KVP1 212244Z 17012KT 35/12 A2999 RMK A01 T03480118  RH  025%=      5-min Rain = 0
KVP1 212245Z 16010KT 35/12 A2999 RMK A01 T03480119  RH  025%=      5-min Rain = 0
KVP1 212246Z 17014KT 35/12 A2999 RMK A01 T03510119  RH  025%=      5-min Rain = 0
KVP1 212247Z 18011KT 35/12 A2999 RMK A01 T03510117  RH  024%=      5-min Rain = 0
KVP1 212248Z 17010KT 35/12 A2999 RMK A01 T03500118  RH  025%=      5-min Rain = 0
KVP1 212249Z 16011KT 35/12 A2999 RMK A01 T03510117  RH  024%=      5-min Rain = 0
KVP1 212250Z 16009KT 35/12 A2999 RMK A01 T03500116  RH  024%=      5-min Rain = 0
KVP1 212251Z 17011KT 35/12 A2998 RMK A01 T03500118  RH  025%=      5-min Rain = 0
KVP1 212252Z 16011KT 35/12 A2999 RMK A01 T03500117  RH  024%=      5-min Rain = 0
KVP1 212253Z 17007KT 35/12 A2998 RMK A01 T03500116  RH  024%=      5-min Rain = 0
KVP1 212254Z 16010KT 35/12 A2998 RMK A01 T03510116  RH  024%=      5-min Rain = 0
KVP1 212255Z 16010KT 35/12 A2998 RMK A01 T03520117  RH  024%=      5-min Rain = 0
KVP1 212256Z 18012KT 35/12 A2998 RMK A01 T03520116  RH  024%=      5-min Rain = 0
KVP1 212257Z 19012KT 35/11 A2998 RMK A01 T03500113  RH  024%=      5-min Rain = 0
KVP1 212258Z 17010KT 35/11 A2998 RMK A01 T03480111  RH  024%=      5-min Rain = 0
KVP1 212259Z 17008KT 35/11 A2998 RMK A01 T03470114  RH  024%=      5-min Rain = 0
KVP1 212300Z 17010KT 35/12 A2998 RMK A01 T03500115  RH  024%=      5-min Rain = 0
KVP1 212301Z 18011KT 35/11 A2998 RMK A01 T03520114  RH  024%=      5-min Rain = 0
KVP1 212302Z 19011KT 35/11 A2998 RMK A01 T03530111  RH  023%=      5-min Rain = 0
KVP1 212303Z 18012G17KT 35/11 A2998 RMK A01 T03510113  RH  024%=      5-min Rain = 0
KVP1 212304Z 17013KT 35/11 A2998 RMK A01 T03510113  RH  024%=      5-min Rain = 0
KVP1 212305Z 19012KT 35/11 A2998 RMK A01 T03510112  RH  023%=      5-min Rain = 0
KVP1 212306Z 20011KT 35/11 A2998 RMK A01 T03510110  RH  023%=      5-min Rain = 0
KVP1 212307Z 19010KT 35/11 A2998 RMK A01 T03490109  RH  023%=      5-min Rain = 0
KVP1 212308Z 18010KT 35/11 A2998 RMK A01 T03470110  RH  024%=      5-min Rain = 0
KVP1 212309Z 15012G17KT 35/11 A2998 RMK A01 T03480109  RH  023%=      5-min Rain = 0
KVP1 212310Z 18014G19KT 35/11 A2998 RMK A01 T03490111  RH  024%=      5-min Rain = 0
KVP1 212311Z 18009KT 35/11 A2998 RMK A01 T03490110  RH  023%=      5-min Rain = 0
KVP1 212312Z 19009KT 35/11 A2998 RMK A01 T03490111  RH  024%=      5-min Rain = 0
KVP1 212313Z 18013KT 35/11 A2998 RMK A01 T03500110  RH  023%=      5-min Rain = 0
KVP1 212314Z 18009KT 35/11 A2998 RMK A01 T03510108  RH  023%=      5-min Rain = 0
KVP1 212315Z 20010KT 35/11 A2998 RMK A01 T03490109  RH  023%=      5-min Rain = 0
KVP1 212316Z 19011KT 35/11 A2998 RMK A01 T03490109  RH  023%=      5-min Rain = 0
KVP1 212317Z 18010KT 35/11 A2998 RMK A01 T03480108  RH  023%=      5-min Rain = 0
KVP1 212318Z 17009KT 35/11 A2998 RMK A01 T03480107  RH  023%=      5-min Rain = 0
KVP1 212319Z 18008KT 35/11 A2998 RMK A01 T03470107  RH  023%=      5-min Rain = 0
KVP1 212320Z 15010KT 35/11 A2998 RMK A01 T03490109  RH  023%=      5-min Rain = 0
KVP1 212321Z 14011KT 35/11 A2998 RMK A01 T03510110  RH  023%=      5-min Rain = 0
KVP1 212322Z 14011KT 35/11 A2998 RMK A01 T03510107  RH  023%=      5-min Rain = 0
KVP1 212323Z 15012KT 35/11 A2998 RMK A01 T03480107  RH  023%=      5-min Rain = 0
KVP1 212324Z 17007KT 35/10 A2998 RMK A01 T03470104  RH  023%=      5-min Rain = 0
KVP1 212325Z 17007KT 35/10 A2998 RMK A01 T03450104  RH  023%=      5-min Rain = 0
KVP1 212326Z 17010KT 35/11 A2998 RMK A01 T03460105  RH  023%=      5-min Rain = 0
KVP1 212327Z 17014KT 35/11 A2998 RMK A01 T03470107  RH  023%=      5-min Rain = 0
KVP1 212328Z 17009KT 35/11 A2998 RMK A01 T03470107  RH  023%=      5-min Rain = 0
KVP1 212329Z 18012KT 35/11 A2998 RMK A01 T03470107  RH  023%=      5-min Rain = 0
KVP1 212330Z 18014G21KT 35/11 A2998 RMK A01 T03470107  RH  023%=      5-min Rain = 0
KVP1 212331Z 16011G16KT 35/11 A2998 RMK A01 T03480110  RH  024%=      5-min Rain = 0
KVP1 212332Z 16012KT 35/11 A2998 RMK A01 T03490112  RH  024%=      5-min Rain = 0
KVP1 212333Z 16013KT 35/11 A2998 RMK A01 T03480112  RH  024%=      5-min Rain = 0
KVP1 212334Z 14011KT 35/11 A2998 RMK A01 T03470111  RH  024%=      5-min Rain = 0
KVP1 212335Z 14010KT 35/11 A2998 RMK A01 T03460108  RH  023%=      5-min Rain = 0
KVP1 212336Z 16011KT 35/11 A2998 RMK A01 T03460109  RH  024%=      5-min Rain = 0
KVP1 212337Z 16012KT 35/11 A2998 RMK A01 T03450109  RH  024%=      5-min Rain = 0
KVP1 212338Z 17011KT 34/11 A2998 RMK A01 T03430107  RH  024%=      5-min Rain = 0
KVP1 212339Z 18012KT 34/11 A2998 RMK A01 T03430107  RH  024%=      5-min Rain = 0
KVP1 212340Z 17009KT 34/11 A2998 RMK A01 T03440107  RH  024%=      5-min Rain = 0
KVP1 212341Z 16011KT 35/11 A2998 RMK A01 T03460110  RH  024%=      5-min Rain = 0
KVP1 212342Z 17011KT 35/11 A2998 RMK A01 T03460111  RH  024%=      5-min Rain = 0
KVP1 212343Z 17012KT 35/11 A2998 RMK A01 T03450111  RH  024%=      5-min Rain = 0
KVP1 212344Z 17011KT 34/11 A2998 RMK A01 T03430110  RH  024%=      5-min Rain = 0
KVP1 212345Z 18010KT 34/11 A2998 RMK A01 T03430110  RH  024%=      5-min Rain = 0
KVP1 212346Z 17009KT 34/11 A2998 RMK A01 T03420109  RH  024%=      5-min Rain = 0
KVP1 212347Z 18009KT 34/11 A2998 RMK A01 T03430110  RH  024%=      5-min Rain = 0
KVP1 212348Z 18008KT 34/11 A2997 RMK A01 T03420107  RH  024%=      5-min Rain = 0
KVP1 212349Z 19008KT 34/11 A2997 RMK A01 T03410106  RH  024%=      5-min Rain = 0
KVP1 212350Z 19011G17KT 34/11 A2997 RMK A01 T03410107  RH  024%=      5-min Rain = 0
KVP1 212351Z 18015KT 34/11 A2997 RMK A01 T03420110  RH  024%=      5-min Rain = 0
KVP1 212352Z 18012KT 34/11 A2997 RMK A01 T03420112  RH  025%=      5-min Rain = 0
KVP1 212353Z 19010KT 34/11 A2997 RMK A01 T03410112  RH  025%=      5-min Rain = 0
KVP1 212354Z 18014KT 34/11 A2998 RMK A01 T03410114  RH  025%=      5-min Rain = 0
KVP1 212355Z 18010G15KT 34/12 A2998 RMK A01 T03400115  RH  026%=      5-min Rain = 0
KVP1 212356Z 18008KT 34/12 A2998 RMK A01 T03400116  RH  026%=      5-min Rain = 0
KVP1 212357Z 17008KT 34/12 A2997 RMK A01 T03410117  RH  026%=      5-min Rain = 0
KVP1 212358Z 17007KT 34/12 A2997 RMK A01 T03420117  RH  026%=      5-min Rain = 0
KVP1 212359Z 19007KT 34/12 A2997 RMK A01 T03430118  RH  026%=      5-min Rain = 0
KVP1 220000Z 18009KT 34/12 A2997 RMK A01 T03440117  RH  025%=      5-min Rain = 0
KVP1 220001Z 16008KT 34/12 A2997 RMK A01 T03430117  RH  025%=      5-min Rain = 0
KVP1 220002Z 17008KT 34/12 A2997 RMK A01 T03410115  RH  025%=      5-min Rain = 0
KVP1 220003Z 20008KT 34/12 A2997 RMK A01 T03400116  RH  026%=      5-min Rain = 0
KVP1 220004Z 19009KT 34/12 A2997 RMK A01 T03390117  RH  026%=      5-min Rain = 0
KVP1 220005Z 19009KT 34/12 A2997 RMK A01 T03370116  RH  026%=      5-min Rain = 0
KVP1 220006Z 20008KT 34/12 A2997 RMK A01 T03360115  RH  026%=      5-min Rain = 0
KVP1 220007Z 21010KT 33/12 A2997 RMK A01 T03340115  RH  026%=      5-min Rain = 0
KVP1 220008Z 20010KT 33/11 A2997 RMK A01 T03330113  RH  026%=      5-min Rain = 0
KVP1 220009Z 19010KT 33/12 A2997 RMK A01 T03310115  RH  027%=      5-min Rain = 0
KVP1 220010Z 19010KT 33/12 A2997 RMK A01 T03300117  RH  027%=      5-min Rain = 0
KVP1 220011Z 18010KT 33/12 A2997 RMK A01 T03300118  RH  027%=      5-min Rain = 0
KVP1 220012Z 19011KT 33/12 A2997 RMK A01 T03290118  RH  028%=      5-min Rain = 0
KVP1 220013Z 19010KT 33/12 A2997 RMK A01 T03290117  RH  027%=      5-min Rain = 0
KVP1 220014Z 18009KT 33/12 A2997 RMK A01 T03290116  RH  027%=      5-min Rain = 0
KVP1 220015Z 18008KT 33/12 A2997 RMK A01 T03290116  RH  027%=      5-min Rain = 0
KVP1 220016Z 17009KT 33/12 A2997 RMK A01 T03290116  RH  027%=      5-min Rain = 0
KVP1 220017Z 18007KT 33/12 A2997 RMK A01 T03290116  RH  027%=      5-min Rain = 0
KVP1 220018Z 17008KT 33/12 A2997 RMK A01 T03280117  RH  028%=      5-min Rain = 0
KVP1 220019Z 20007KT 33/11 A2997 RMK A01 T03270114  RH  027%=      5-min Rain = 0
KVP1 220020Z 19006KT 33/12 A2998 RMK A01 T03270116  RH  027%=      5-min Rain = 0
KVP1 220021Z 20006KT 33/12 A2998 RMK A01 T03270116  RH  028%=      5-min Rain = 0
KVP1 220022Z 19007KT 33/12 A2998 RMK A01 T03260117  RH  028%=      5-min Rain = 0
KVP1 220023Z 19008KT 33/12 A2998 RMK A01 T03250117  RH  028%=      5-min Rain = 0
KVP1 220024Z 19007KT 33/12 A2998 RMK A01 T03250115  RH  028%=      5-min Rain = 0
KVP1 220025Z 18006KT 32/12 A2998 RMK A01 T03240116  RH  028%=      5-min Rain = 0
KVP1 220026Z 17006KT 32/12 A2998 RMK A01 T03230115  RH  028%=      5-min Rain = 0
KVP1 220027Z 18007KT 32/12 A2998 RMK A01 T03230118  RH  028%=      5-min Rain = 0
KVP1 220028Z 20007KT 32/12 A2998 RMK A01 T03220119  RH  029%=      5-min Rain = 0
KVP1 220029Z 19008KT 32/12 A2998 RMK A01 T03210120  RH  029%=      5-min Rain = 0
KVP1 220030Z 19008KT 32/12 A2998 RMK A01 T03200120  RH  029%=      5-min Rain = 0
KVP1 220031Z 20009KT 32/12 A2998 RMK A01 T03200121  RH  030%=      5-min Rain = 0
KVP1 220032Z 20010KT 32/12 A2998 RMK A01 T03200120  RH  030%=      5-min Rain = 0
KVP1 220033Z 20010KT 32/12 A2998 RMK A01 T03190119  RH  029%=      5-min Rain = 0
KVP1 220034Z 19009KT 32/12 A2998 RMK A01 T03190117  RH  029%=      5-min Rain = 0
KVP1 220035Z 20007KT 32/12 A2998 RMK A01 T03200117  RH  029%=      5-min Rain = 0
KVP1 220036Z 20007KT 32/12 A2998 RMK A01 T03200118  RH  029%=      5-min Rain = 0
KVP1 220037Z 21008KT 32/12 A2998 RMK A01 T03190119  RH  029%=      5-min Rain = 0
KVP1 220038Z 20009KT 32/12 A2998 RMK A01 T03180119  RH  030%=      5-min Rain = 0
KVP1 220039Z 20010KT 32/12 A2998 RMK A01 T03170119  RH  030%=      5-min Rain = 0
KVP1 220040Z 19010KT 32/12 A2998 RMK A01 T03170119  RH  030%=      5-min Rain = 0
KVP1 220041Z 19010KT 32/12 A2998 RMK A01 T03170118  RH  030%=      5-min Rain = 0
KVP1 220042Z 19011KT 32/12 A2998 RMK A01 T03170118  RH  030%=      5-min Rain = 0
KVP1 220043Z 19010KT 32/12 A2998 RMK A01 T03180118  RH  029%=      5-min Rain = 0
KVP1 220044Z 19011KT 32/12 A2998 RMK A01 T03180117  RH  029%=      5-min Rain = 0
KVP1 220045Z 18009KT 32/12 A2998 RMK A01 T03200117  RH  029%=      5-min Rain = 0
KVP1 220046Z 18008KT 32/12 A2998 RMK A01 T03200118  RH  029%=      5-min Rain = 0
KVP1 220047Z 19008KT 32/12 A2998 RMK A01 T03200118  RH  029%=      5-min Rain = 0
KVP1 220048Z 19009KT 32/12 A2998 RMK A01 T03190118  RH  029%=      5-min Rain = 0
KVP1 220049Z 20009KT 32/12 A2998 RMK A01 T03180119  RH  030%=      5-min Rain = 0
KVP1 220050Z 20009KT 32/12 A2998 RMK A01 T03170119  RH  030%=      5-min Rain = 0
KVP1 220051Z 20009KT 32/12 A2998 RMK A01 T03160119  RH  030%=      5-min Rain = 0
KVP1 220052Z 20009KT 32/12 A2998 RMK A01 T03150120  RH  030%=      5-min Rain = 0
KVP1 220053Z 20011KT 32/12 A2998 RMK A01 T03150120  RH  030%=      5-min Rain = 0
KVP1 220054Z 20010KT 32/12 A2998 RMK A01 T03150120  RH  030%=      5-min Rain = 0
KVP1 220055Z 20012KT 32/12 A2998 RMK A01 T03150121  RH  031%=      5-min Rain = 0
KVP1 220056Z 19010KT 32/12 A2998 RMK A01 T03150122  RH  031%=      5-min Rain = 0
KVP1 220057Z 19010KT 31/12 A2998 RMK A01 T03140123  RH  031%=      5-min Rain = 0
KVP1 220058Z 19010KT 31/12 A2998 RMK A01 T03130122  RH  031%=      5-min Rain = 0
KVP1 220059Z 19010KT 31/12 A2998 RMK A01 T03130122  RH  031%=      5-min Rain = 0
KVP1 220100Z 19009KT 31/12 A2998 RMK A01 T03130123  RH  031%=      5-min Rain = 0
KVP1 220101Z 19009KT 31/12 A2998 RMK A01 T03130123  RH  031%=      5-min Rain = 0
KVP1 220102Z 19008KT 31/12 A2998 RMK A01 T03130124  RH  031%=      5-min Rain = 0
KVP1 220103Z 20008KT 31/12 A2998 RMK A01 T03120124  RH  032%=      5-min Rain = 0
KVP1 220104Z 19008KT 31/12 A2998 RMK A01 T03110124  RH  032%=      5-min Rain = 0
KVP1 220105Z 19007KT 31/12 A2998 RMK A01 T03100124  RH  032%=      5-min Rain = 0
KVP1 220106Z 19008KT 31/12 A2998 RMK A01 T03090124  RH  032%=      5-min Rain = 0
KVP1 220107Z 19008KT 31/12 A2998 RMK A01 T03090124  RH  032%=      5-min Rain = 0
KVP1 220108Z 20007KT 31/13 A2998 RMK A01 T03080125  RH  032%=      5-min Rain = 0
KVP1 220109Z 20008KT 31/13 A2998 RMK A01 T03070125  RH  033%=      5-min Rain = 0
KVP1 220110Z 20008KT 31/13 A2998 RMK A01 T03060125  RH  033%=      5-min Rain = 0
KVP1 220111Z 20008KT 31/12 A2999 RMK A01 T03050124  RH  033%=      5-min Rain = 0
KVP1 220112Z 20008KT 30/13 A2999 RMK A01 T03040125  RH  033%=      5-min Rain = 0
KVP1 220113Z 20008KT 30/13 A2999 RMK A01 T03040125  RH  033%=      5-min Rain = 0
KVP1 220114Z 20008KT 30/13 A2999 RMK A01 T03030125  RH  034%=      5-min Rain = 0
KVP1 220115Z 20008KT 30/13 A2999 RMK A01 T03020125  RH  034%=      5-min Rain = 0
KVP1 220116Z 20008KT 30/13 A2998 RMK A01 T03020125  RH  034%=      5-min Rain = 0
KVP1 220117Z 20008KT 30/13 A2998 RMK A01 T03010125  RH  034%=      5-min Rain = 0
KVP1 220118Z 20008KT 30/13 A2998 RMK A01 T03000125  RH  034%=      5-min Rain = 0
KVP1 220119Z 20008KT 30/13 A2999 RMK A01 T03000125  RH  034%=      5-min Rain = 0
KVP1 220120Z 20008KT 30/13 A2999 RMK A01 T03000125  RH  034%=      5-min Rain = 0
KVP1 220121Z 20007KT 30/13 A2999 RMK A01 T02990126  RH  034%=      5-min Rain = 0
KVP1 220122Z 20007KT 30/13 A2999 RMK A01 T02990126  RH  035%=      5-min Rain = 0
KVP1 220123Z 20007KT 30/13 A2999 RMK A01 T02980126  RH  035%=      5-min Rain = 0
KVP1 220124Z 20007KT 30/13 A2999 RMK A01 T02960126  RH  035%=      5-min Rain = 0
KVP1 220125Z 20007KT 30/13 A2999 RMK A01 T02950126  RH  035%=      5-min Rain = 0
KVP1 220126Z 20007KT 29/13 A2999 RMK A01 T02940126  RH  036%=      5-min Rain = 0
KVP1 220127Z 20007KT 29/13 A2999 RMK A01 T02930126  RH  036%=      5-min Rain = 0
KVP1 220128Z 19008KT 29/13 A2999 RMK A01 T02920126  RH  036%=      5-min Rain = 0
KVP1 220129Z 19008KT 29/13 A2999 RMK A01 T02910126  RH  036%=      5-min Rain = 0
KVP1 220130Z 20008KT 29/13 A2999 RMK A01 T02910126  RH  036%=      5-min Rain = 0
KVP1 220131Z 19008KT 29/13 A2999 RMK A01 T02900126  RH  036%=      5-min Rain = 0
KVP1 220132Z 19008KT 29/13 A2999 RMK A01 T02910126  RH  036%=      5-min Rain = 0
KVP1 220133Z 19008KT 29/13 A2999 RMK A01 T02920127  RH  036%=      5-min Rain = 0
KVP1 220134Z 19008KT 29/13 A2999 RMK A01 T02920127  RH  036%=      5-min Rain = 0
KVP1 220135Z 19007KT 29/13 A2999 RMK A01 T02920127  RH  036%=      5-min Rain = 0
KVP1 220136Z 19007KT 29/13 A2999 RMK A01 T02920128  RH  036%=      5-min Rain = 0
KVP1 220137Z 19007KT 29/13 A2999 RMK A01 T02920128  RH  036%=      5-min Rain = 0
KVP1 220138Z 19007KT 29/13 A2999 RMK A01 T02910127  RH  036%=      5-min Rain = 0
KVP1 220139Z 19007KT 29/13 A2999 RMK A01 T02910128  RH  037%=      5-min Rain = 0
KVP1 220140Z 19006KT 29/13 A2999 RMK A01 T02900128  RH  037%=      5-min Rain = 0
KVP1 220141Z 19007KT 29/13 A2999 RMK A01 T02890128  RH  037%=      5-min Rain = 0
KVP1 220142Z 19007KT 29/13 A2999 RMK A01 T02890128  RH  037%=      5-min Rain = 0
KVP1 220143Z 19007KT 29/13 A30 RMK A01 T02880128  RH  037%=      5-min Rain = 0
KVP1 220144Z 19006KT 29/13 A30 RMK A01 T02870128  RH  038%=      5-min Rain = 0
KVP1 220145Z 19006KT 29/13 A30 RMK A01 T02860129  RH  038%=      5-min Rain = 0
KVP1 220146Z 19006KT 29/13 A30 RMK A01 T02850129  RH  038%=      5-min Rain = 0
KVP1 220147Z 19006KT 28/13 A30 RMK A01 T02840129  RH  038%=      5-min Rain = 0
KVP1 220148Z 19006KT 28/13 A30 RMK A01 T02830129  RH  039%=      5-min Rain = 0
KVP1 220149Z 19006KT 28/13 A30 RMK A01 T02820129  RH  039%=      5-min Rain = 0
KVP1 220150Z 19007KT 28/13 A30 RMK A01 T02810129  RH  039%=      5-min Rain = 0
KVP1 220151Z 19007KT 28/13 A30 RMK A01 T02800129  RH  039%=      5-min Rain = 0
KVP1 220152Z 19006KT 28/13 A30 RMK A01 T02790129  RH  040%=      5-min Rain = 0
KVP1 220153Z 19006KT 28/13 A30 RMK A01 T02790130  RH  040%=      5-min Rain = 0
KVP1 220154Z 19006KT 28/13 A30 RMK A01 T02780129  RH  040%=      5-min Rain = 0
KVP1 220155Z 19006KT 28/13 A30 RMK A01 T02780130  RH  040%=      5-min Rain = 0
KVP1 220156Z 19006KT 28/13 A30 RMK A01 T02760129  RH  040%=      5-min Rain = 0
KVP1 220157Z 19006KT 28/13 A30 RMK A01 T02750129  RH  040%=      5-min Rain = 0
KVP1 220158Z 19006KT 27/13 A30 RMK A01 T02740129  RH  041%=      5-min Rain = 0
KVP1 220159Z 19006KT 27/13 A30 RMK A01 T02740130  RH  041%=      5-min Rain = 0
KVP1 220200Z 19006KT 27/13 A30 RMK A01 T02730130  RH  041%=      5-min Rain = 0
KVP1 220201Z 19006KT 27/13 A30 RMK A01 T02720130  RH  041%=      5-min Rain = 0
KVP1 220202Z 18006KT 27/13 A3001 RMK A01 T02710130  RH  042%=      5-min Rain = 0
KVP1 220203Z 18006KT 27/13 A3001 RMK A01 T02710130  RH  042%=      5-min Rain = 0
KVP1 220204Z 18006KT 27/13 A3001 RMK A01 T02700130  RH  042%=      5-min Rain = 0
KVP1 220205Z 18006KT 27/13 A3001 RMK A01 T02690129  RH  042%=      5-min Rain = 0
KVP1 220206Z 18006KT 27/13 A3001 RMK A01 T02680129  RH  042%=      5-min Rain = 0
KVP1 220207Z 18005KT 27/13 A3001 RMK A01 T02680129  RH  042%=      5-min Rain = 0
KVP1 220208Z 17005KT 27/13 A3001 RMK A01 T02670129  RH  042%=      5-min Rain = 0
KVP1 220209Z 15004KT 27/13 A3001 RMK A01 T02670128  RH  042%=      5-min Rain = 0
KVP1 220210Z 15005KT 27/13 A3001 RMK A01 T02660128  RH  043%=      5-min Rain = 0
KVP1 220211Z 15006KT 27/13 A3001 RMK A01 T02660131  RH  043%=      5-min Rain = 0
KVP1 220212Z 15006KT 27/13 A3001 RMK A01 T02650133  RH  044%=      5-min Rain = 0
KVP1 220213Z 16006KT 27/13 A3001 RMK A01 T02650134  RH  044%=      5-min Rain = 0
KVP1 220214Z 16006KT 27/13 A3001 RMK A01 T02650134  RH  044%=      5-min Rain = 0
KVP1 220215Z 17006KT 27/13 A3001 RMK A01 T02660134  RH  044%=      5-min Rain = 0
KVP1 220216Z 17006KT 27/13 A3001 RMK A01 T02660134  RH  044%=      5-min Rain = 0
KVP1 220217Z 17006KT 27/13 A3001 RMK A01 T02660134  RH  044%=      5-min Rain = 0
KVP1 220218Z 17006KT 27/13 A3001 RMK A01 T02660134  RH  044%=      5-min Rain = 0
KVP1 220219Z 17006KT 27/13 A3001 RMK A01 T02670134  RH  044%=      5-min Rain = 0
KVP1 220220Z 17006KT 27/13 A3001 RMK A01 T02670134  RH  044%=      5-min Rain = 0
KVP1 220221Z 18005KT 27/13 A3001 RMK A01 T02670134  RH  044%=      5-min Rain = 0
KVP1 220222Z 17006KT 27/13 A3001 RMK A01 T02660134  RH  044%=      5-min Rain = 0
KVP1 220223Z 16006KT 27/13 A3001 RMK A01 T02660134  RH  044%=      5-min Rain = 0
KVP1 220224Z 16007KT 27/13 A3001 RMK A01 T02650133  RH  044%=      5-min Rain = 0
KVP1 220225Z 16007KT 27/13 A3001 RMK A01 T02650134  RH  044%=      5-min Rain = 0
KVP1 220226Z 17008KT 27/13 A3001 RMK A01 T02660134  RH  044%=      5-min Rain = 0
KVP1 220227Z 17007KT 27/13 A3001 RMK A01 T02690134  RH  043%=      5-min Rain = 0
KVP1 220228Z 18007KT 27/13 A3001 RMK A01 T02720134  RH  043%=      5-min Rain = 0
KVP1 220229Z 18007KT 27/13 A3001 RMK A01 T02740134  RH  042%=      5-min Rain = 0
KVP1 220230Z 18006KT 28/13 A3002 RMK A01 T02750133  RH  042%=      5-min Rain = 0
KVP1 220231Z 17006KT 28/13 A3002 RMK A01 T02760133  RH  041%=      5-min Rain = 0
KVP1 220232Z 17007KT 28/13 A3002 RMK A01 T02770133  RH  041%=      5-min Rain = 0
KVP1 220233Z 17006KT 28/13 A3002 RMK A01 T02770133  RH  041%=      5-min Rain = 0
KVP1 220234Z 17007KT 28/13 A3002 RMK A01 T02770133  RH  041%=      5-min Rain = 0
KVP1 220235Z 17006KT 28/13 A3002 RMK A01 T02770132  RH  041%=      5-min Rain = 0
KVP1 220236Z 17007KT 28/13 A3002 RMK A01 T02780133  RH  041%=      5-min Rain = 0
KVP1 220237Z 17007KT 28/13 A3002 RMK A01 T02780132  RH  041%=      5-min Rain = 0
KVP1 220238Z 18006KT 28/13 A3002 RMK A01 T02780132  RH  041%=      5-min Rain = 0
KVP1 220239Z 18007KT 28/13 A3002 RMK A01 T02780132  RH  041%=      5-min Rain = 0
KVP1 220240Z 19007KT 28/13 A3002 RMK A01 T02780132  RH  041%=      5-min Rain = 0
KVP1 220241Z 19007KT 28/13 A3002 RMK A01 T02780132  RH  040%=      5-min Rain = 0
KVP1 220242Z 19007KT 28/13 A3002 RMK A01 T02790132  RH  040%=      5-min Rain = 0
KVP1 220243Z 19007KT 28/13 A3002 RMK A01 T02790132  RH  040%=      5-min Rain = 0
KVP1 220244Z 19007KT 28/13 A3002 RMK A01 T02790132  RH  041%=      5-min Rain = 0
KVP1 220245Z 19007KT 28/13 A3002 RMK A01 T02790132  RH  040%=      5-min Rain = 0
KVP1 220246Z 19007KT 28/13 A3002 RMK A01 T02790133  RH  040%=      5-min Rain = 0
KVP1 220247Z 19007KT 28/13 A3002 RMK A01 T02800133  RH  040%=      5-min Rain = 0
KVP1 220248Z 18007KT 28/13 A3002 RMK A01 T02800134  RH  040%=      5-min Rain = 0
KVP1 220249Z 18007KT 28/13 A3002 RMK A01 T02810134  RH  040%=      5-min Rain = 0
KVP1 220250Z 18007KT 28/13 A3002 RMK A01 T02810133  RH  040%=      5-min Rain = 0
KVP1 220251Z 18007KT 28/13 A3002 RMK A01 T02820134  RH  040%=      5-min Rain = 0
KVP1 220252Z 18007KT 28/13 A3003 RMK A01 T02820134  RH  040%=      5-min Rain = 0
KVP1 220253Z 19007KT 28/13 A3003 RMK A01 T02820133  RH  040%=      5-min Rain = 0
KVP1 220254Z 19007KT 28/13 A3003 RMK A01 T02820134  RH  040%=      5-min Rain = 0
KVP1 220255Z 19007KT 28/13 A3003 RMK A01 T02820134  RH  040%=      5-min Rain = 0
KVP1 220256Z 20007KT 28/13 A3003 RMK A01 T02820134  RH  040%=      5-min Rain = 0
KVP1 220257Z 21008KT 28/14 A3003 RMK A01 T02820135  RH  040%=      5-min Rain = 0
KVP1 220258Z 22007KT 28/14 A3003 RMK A01 T02810136  RH  041%=      5-min Rain = 0
KVP1 220259Z 22007KT 28/14 A3003 RMK A01 T02790136  RH  041%=      5-min Rain = 0
KVP1 220300Z 23008KT 28/14 A3003 RMK A01 T02770136  RH  042%=      5-min Rain = 0
KVP1 220301Z 22009KT 27/14 A3003 RMK A01 T02740136  RH  043%=      5-min Rain = 0
KVP1 220302Z 22009KT 27/14 A3003 RMK A01 T02730136  RH  043%=      5-min Rain = 0
KVP1 220303Z 22009KT 27/14 A3003 RMK A01 T02720135  RH  043%=      5-min Rain = 0
KVP1 220304Z 22009KT 27/14 A3003 RMK A01 T02730135  RH  043%=      5-min Rain = 0
KVP1 220305Z 21009KT 27/14 A3003 RMK A01 T02740135  RH  042%=      5-min Rain = 0
KVP1 220306Z 21010KT 28/14 A3003 RMK A01 T02750135  RH  042%=      5-min Rain = 0
KVP1 220307Z 21009KT 28/14 A3003 RMK A01 T02770135  RH  042%=      5-min Rain = 0
KVP1 220308Z 21009KT 28/14 A3003 RMK A01 T02790135  RH  041%=      5-min Rain = 0
KVP1 220309Z 21009KT 28/14 A3003 RMK A01 T02800135  RH  041%=      5-min Rain = 0
KVP1 220310Z 20009KT 28/14 A3003 RMK A01 T02810135  RH  041%=      5-min Rain = 0
KVP1 220311Z 20009KT 28/14 A3003 RMK A01 T02820135  RH  041%=      5-min Rain = 0
KVP1 220312Z 20009KT 28/14 A3003 RMK A01 T02820135  RH  040%=      5-min Rain = 0
KVP1 220313Z 20008KT 28/14 A3003 RMK A01 T02820135  RH  040%=      5-min Rain = 0
KVP1 220314Z 19008KT 28/14 A3003 RMK A01 T02820135  RH  041%=      5-min Rain = 0
KVP1 220315Z 20008KT 28/14 A3003 RMK A01 T02820135  RH  041%=      5-min Rain = 0
KVP1 220316Z 20008KT 28/14 A3003 RMK A01 T02810135  RH  041%=      5-min Rain = 0
KVP1 220317Z 20007KT 28/14 A3004 RMK A01 T02810135  RH  041%=      5-min Rain = 0
KVP1 220318Z 20007KT 28/14 A3004 RMK A01 T02810135  RH  041%=      5-min Rain = 0
KVP1 220319Z 20008KT 28/14 A3004 RMK A01 T02800135  RH  041%=      5-min Rain = 0
KVP1 220320Z 20007KT 28/14 A3004 RMK A01 T02800135  RH  041%=      5-min Rain = 0
KVP1 220321Z 20007KT 28/14 A3004 RMK A01 T02790135  RH  041%=      5-min Rain = 0
KVP1 220322Z 20007KT 28/14 A3004 RMK A01 T02790136  RH  041%=      5-min Rain = 0
KVP1 220323Z 20007KT 28/14 A3004 RMK A01 T02780136  RH  042%=      5-min Rain = 0
KVP1 220324Z 20007KT 28/14 A3004 RMK A01 T02770136  RH  042%=      5-min Rain = 0
KVP1 220325Z 21007KT 28/14 A3004 RMK A01 T02770136  RH  042%=      5-min Rain = 0
KVP1 220326Z 20007KT 28/14 A3004 RMK A01 T02770136  RH  042%=      5-min Rain = 0
KVP1 220327Z 20006KT 28/14 A3004 RMK A01 T02760135  RH  042%=      5-min Rain = 0
KVP1 220328Z 21007KT 28/14 A3004 RMK A01 T02760135  RH  042%=      5-min Rain = 0
KVP1 220329Z 21006KT 28/14 A3004 RMK A01 T02760135  RH  042%=      5-min Rain = 0
KVP1 220330Z 22006KT 28/14 A3004 RMK A01 T02760136  RH  042%=      5-min Rain = 0
KVP1 220331Z 24006KT 28/14 A3005 RMK A01 T02750135  RH  042%=      5-min Rain = 0
KVP1 220332Z 28007KT 28/14 A3005 RMK A01 T02750135  RH  042%=      5-min Rain = 0
KVP1 220333Z 29009KT 27/14 A3005 RMK A01 T02740137  RH  043%=      5-min Rain = 0
KVP1 220334Z 29009KT 27/14 A3005 RMK A01 T02720138  RH  044%=      5-min Rain = 0
KVP1 220335Z 30008KT 27/14 A3005 RMK A01 T02720136  RH  043%=      5-min Rain = 0
KVP1 220336Z 30009KT 27/14 A3005 RMK A01 T02720135  RH  043%=      5-min Rain = 0
KVP1 220337Z 30011KT 27/13 A3005 RMK A01 T02720134  RH  043%=      5-min Rain = 0
KVP1 220338Z 31011KT 27/13 A3005 RMK A01 T02710134  RH  043%=      5-min Rain = 0
KVP1 220339Z 31012KT 27/13 A3005 RMK A01 T02700133  RH  043%=      5-min Rain = 0
KVP1 220340Z 31012KT 27/13 A3005 RMK A01 T02700134  RH  043%=      5-min Rain = 0
KVP1 220341Z 30009KT 27/13 A3005 RMK A01 T02700133  RH  043%=      5-min Rain = 0
KVP1 220342Z 29009KT 27/13 A3005 RMK A01 T02700134  RH  043%=      5-min Rain = 0
KVP1 220343Z 28012KT 27/13 A3005 RMK A01 T02690134  RH  043%=      5-min Rain = 0
KVP1 220344Z 30014KT 27/14 A3005 RMK A01 T02680135  RH  044%=      5-min Rain = 0
KVP1 220345Z 31014KT 27/14 A3005 RMK A01 T02680135  RH  044%=      5-min Rain = 0
KVP1 220346Z 30013KT 27/14 A3005 RMK A01 T02680135  RH  044%=      5-min Rain = 0
KVP1 220347Z 30014KT 27/14 A3005 RMK A01 T02680135  RH  044%=      5-min Rain = 0
KVP1 220348Z 32019KT 27/14 A3005 RMK A01 T02660136  RH  045%=      5-min Rain = 0
KVP1 220349Z 33016KT 27/14 A3005 RMK A01 T02650136  RH  045%=      5-min Rain = 0
KVP1 220350Z 33013KT 27/14 A3006 RMK A01 T02650136  RH  045%=      5-min Rain = 0
KVP1 220351Z 33013KT 27/14 A3006 RMK A01 T02650137  RH  045%=      5-min Rain = 0
KVP1 220352Z 33012G17KT 26/14 A3006 RMK A01 T02640138  RH  046%=      5-min Rain = 0
KVP1 220353Z 32015KT 26/14 A3007 RMK A01 T02620138  RH  046%=      5-min Rain = 0
KVP1 220354Z 32014KT 26/14 A3007 RMK A01 T02620138  RH  046%=      5-min Rain = 0
KVP1 220355Z 32013KT 26/14 A3007 RMK A01 T02610138  RH  047%=      5-min Rain = 0
KVP1 220356Z 32012KT 26/14 A3007 RMK A01 T02600138  RH  047%=      5-min Rain = 0
KVP1 220357Z 31013KT 26/14 A3007 RMK A01 T02600139  RH  047%=      5-min Rain = 0
KVP1 220358Z 32013KT 26/14 A3007 RMK A01 T02600139  RH  047%=      5-min Rain = 0
KVP1 220359Z 31012KT 26/14 A3007 RMK A01 T02600139  RH  047%=      5-min Rain = 0
KVP1 220400Z 31013KT 26/14 A3007 RMK A01 T02590139  RH  047%=      5-min Rain = 0
KVP1 220401Z 31013KT 26/14 A3008 RMK A01 T02590139  RH  048%=      5-min Rain = 0
KVP1 220402Z 30012KT 26/14 A3008 RMK A01 T02590139  RH  048%=      5-min Rain = 0
KVP1 220403Z 30015KT 26/14 A3008 RMK A01 T02590140  RH  048%=      5-min Rain = 0
KVP1 220404Z 30014KT 26/14 A3008 RMK A01 T02590143  RH  049%=      5-min Rain = 0
KVP1 220405Z 30014KT 26/15 A3008 RMK A01 T02560148  RH  051%=      5-min Rain = 0
KVP1 220406Z 31011KT 25/15 A3008 RMK A01 T02510151  RH  054%=      5-min Rain = 0
KVP1 220407Z 31012KT 25/15 A3008 RMK A01 T02480152  RH  055%=      5-min Rain = 0
KVP1 220408Z 31012KT 25/15 A3008 RMK A01 T02460153  RH  056%=      5-min Rain = 0
KVP1 220409Z 31013KT 24/15 A3008 RMK A01 T02440153  RH  057%=      5-min Rain = 0
KVP1 220410Z 31014KT 24/15 A3008 RMK A01 T02430154  RH  057%=      5-min Rain = 0
KVP1 220411Z 30014KT 24/16 A3009 RMK A01 T02420155  RH  058%=      5-min Rain = 0
KVP1 220412Z 30013KT 24/16 A3009 RMK A01 T02410157  RH  059%=      5-min Rain = 0
KVP1 220413Z 30013KT 24/16 A3009 RMK A01 T02400157  RH  060%=      5-min Rain = 0
KVP1 220414Z 30012KT 24/16 A3009 RMK A01 T02400157  RH  060%=      5-min Rain = 0
KVP1 220415Z 30012KT 24/16 A3009 RMK A01 T02400157  RH  060%=      5-min Rain = 0
KVP1 220416Z 30011KT 24/16 A301 RMK A01 T02400157  RH  059%=      5-min Rain = 0
KVP1 220417Z 31013KT 24/16 A301 RMK A01 T02410158  RH  060%=      5-min Rain = 0
KVP1 220418Z 32015G20KT 24/16 A301 RMK A01 T02410158  RH  060%=      5-min Rain = 0
KVP1 220419Z 32017KT 24/16 A301 RMK A01 T02400157  RH  059%=      5-min Rain = 0
KVP1 220420Z 33015KT 24/16 A301 RMK A01 T02400158  RH  060%=      5-min Rain = 0
KVP1 220421Z 32014KT 24/16 A301 RMK A01 T02370159  RH  062%=      5-min Rain = 0
KVP1 220422Z 33015G21KT 24/16 A301 RMK A01 T02350159  RH  062%=      5-min Rain = 0
KVP1 220423Z 33017G24KT 23/16 A301 RMK A01 T02340158  RH  062%=      5-min Rain = 0
KVP1 220424Z 33021KT 24/16 A301 RMK A01 T02350156  RH  061%=      5-min Rain = 0
KVP1 220425Z 33019G24KT 24/16 A301 RMK A01 T02370156  RH  061%=      5-min Rain = 0
KVP1 220426Z 33019KT 24/16 A301 RMK A01 T02380157  RH  061%=      5-min Rain = 0
KVP1 220427Z 33018G23KT 24/16 A301 RMK A01 T02370158  RH  061%=      5-min Rain = 0
KVP1 220428Z 33019KT 24/16 A301 RMK A01 T02360159  RH  062%=      5-min Rain = 0
KVP1 220429Z 33020KT 24/16 A301 RMK A01 T02360159  RH  062%=      5-min Rain = 0
KVP1 220430Z 33022G27KT 24/16 A301 RMK A01 T02360159  RH  062%=      5-min Rain = 0
KVP1 220431Z 33023KT 24/16 A301 RMK A01 T02370157  RH  061%=      5-min Rain = 0
KVP1 220432Z 33022KT 24/16 A301 RMK A01 T02380156  RH  060%=      5-min Rain = 0
KVP1 220433Z 32020KT 24/16 A301 RMK A01 T02390156  RH  060%=      5-min Rain = 0
KVP1 220434Z 32018KT 24/16 A301 RMK A01 T02390158  RH  060%=      5-min Rain = 0
KVP1 220435Z 33014KT 24/16 A301 RMK A01 T02380159  RH  061%=      5-min Rain = 0
KVP1 220436Z 32012KT 24/16 A301 RMK A01 T02370159  RH  061%=      5-min Rain = 0
KVP1 220437Z 33013KT 24/16 A301 RMK A01 T02370160  RH  062%=      5-min Rain = 0
KVP1 220438Z 33013KT 24/16 A301 RMK A01 T02350161  RH  063%=      5-min Rain = 0
KVP1 220439Z 33014KT 23/16 A301 RMK A01 T02330163  RH  065%=      5-min Rain = 0
KVP1 220440Z 33015KT 23/16 A301 RMK A01 T02310163  RH  065%=      5-min Rain = 0
KVP1 220441Z 33014KT 23/16 A301 RMK A01 T02300163  RH  066%=      5-min Rain = 0
KVP1 220442Z 33017KT 23/16 A301 RMK A01 T02290163  RH  066%=      5-min Rain = 0
KVP1 220443Z 31022KT 23/16 A301 RMK A01 T02300157  RH  063%=      5-min Rain = 0
KVP1 220444Z 31020KT 23/15 A301 RMK A01 T02340154  RH  061%=      5-min Rain = 0
KVP1 220445Z 31017KT 24/16 A301 RMK A01 T02370155  RH  060%=      5-min Rain = 0
KVP1 220446Z 32018KT 24/16 A301 RMK A01 T02370156  RH  060%=      5-min Rain = 0
KVP1 220447Z 32016KT 24/16 A301 RMK A01 T02360159  RH  062%=      5-min Rain = 0
KVP1 220448Z 32015KT 24/16 A301 RMK A01 T02350161  RH  063%=      5-min Rain = 0
KVP1 220449Z 32017KT 23/16 A301 RMK A01 T02330161  RH  064%=      5-min Rain = 0
KVP1 220450Z 31015KT 23/16 A3011 RMK A01 T02320161  RH  064%=      5-min Rain = 0
KVP1 220451Z 31015KT 23/16 A3011 RMK A01 T02310162  RH  065%=      5-min Rain = 0
KVP1 220452Z 31018KT 23/16 A3011 RMK A01 T02300161  RH  065%=      5-min Rain = 0
KVP1 220453Z 31018KT 23/16 A3011 RMK A01 T02300161  RH  065%=      5-min Rain = 0
KVP1 220454Z 31015KT 23/16 A3011 RMK A01 T02300160  RH  064%=      5-min Rain = 0
KVP1 220455Z 31015KT 23/16 A3011 RMK A01 T02300159  RH  064%=      5-min Rain = 0
KVP1 220456Z 30016KT 23/16 A3011 RMK A01 T02310159  RH  064%=      5-min Rain = 0
KVP1 220457Z 31016G21KT 23/16 A3011 RMK A01 T02310160  RH  064%=      5-min Rain = 0
KVP1 220458Z 31017KT 23/16 A3011 RMK A01 T02300161  RH  065%=      5-min Rain = 0
KVP1 220459Z 30016KT 23/16 A3011 RMK A01 T02300160  RH  065%=      5-min Rain = 0

Page generated in 0.1225 seconds.